OCREC2019 - STANDARD COURSE

Organizator:
Stowarzyszenie Biegów Przeszkodowych OCR Polska
Data:
2019-06-28
Miejsce:
Gdynia
Dystans:
15 km
Zgłoszonych:
1362
Wystartowało:
1274
Nie ukończyło:
19
Ukończyło:
1255
Na trasie:
0
Pełne wyniki :
Wyniki uproszczone:
Wyniki nieoficjalne !!!
Klasyfikacje w punktach pomiarowych: Start | 9km | 10km | 14.9km | Meta

MscZawodnikNumerKlubMiejscowośćKrajKategoriaMkatK/MCzas startuPoint9_OCR
9km
Point10_OCR
10km
Spiker_OCR
14.9km
Czas
netto
15km
Czas
brutto
15km
Różn.Tempo
min/km
Tempo
km/h
          
1OŚLIZŁO Tomasz 1004M Elite1M 100:00:0100:55:5501:00:5401:34:3501:34:39.3501:34:41.25 6:189.5
2TOCHKA Artsiom 1013M Elite2M 200:00:0100:55:4401:01:0101:35:5701:36:03.2501:36:04.55+00:01:236:249.4
3BUYLE Thomas 1000M Elite3M 300:00:0100:54:5800:59:5001:36:4901:36:55.6001:36:57.00+00:02:156:279.3
4DEBUSSCHERE Thibault 1011M Elite4M 400:00:0100:58:5301:04:2901:39:3301:39:37.9501:39:39.55+00:04:586:389
5TWEDDELL Tom 1007M Elite5M 500:00:0100:58:3101:03:3501:40:3401:40:39.7501:40:41.00+00:05:596:428.9
6СУЗДАЛЕВ Антон 1017M Elite6M 600:00:0000:56:5601:02:2601:41:0401:41:09.5501:41:10.30+00:06:296:448.9
7HRDINA Pavel 1018M Elite7M 700:00:0200:58:5001:03:5601:42:2901:42:36.0501:42:38.45+00:07:576:508.8
8HARBUNOU Ihar 1010M Elite8M 800:00:0100:59:3401:04:2601:42:5701:43:01.3001:43:02.60+00:08:216:528.7
9KOFOED Leon 1003M Elite9M 900:00:0201:06:3901:43:2001:43:24.5501:43:27.05+00:08:456:538.7
10MENDES Axel 1029M Elite10M 1000:00:0100:59:4801:05:2201:43:2401:43:29.7501:43:30.95+00:08:496:538.7
11ДЕГТЯРЕВ Иван 1023M Elite11M 1100:00:0101:06:3201:43:3301:43:39.8501:43:41.05+00:08:596:548.7
12HEER Jesse De 1001M Elite12M 1200:00:0200:59:3701:05:0501:44:3901:44:43.6501:44:46.20+00:10:046:588.6
13LINDBERG Mads 2352M Journeyman1M 1300:00:0201:45:1901:45:29.6001:45:31.60+00:10:507:018.5
14PRUSAK Piotr 1413M 30-341M 1400:00:0001:02:5501:08:5501:47:1201:47:17.1001:47:17.10+00:12:357:098.4
15BLONDEEL Jensen 1012M Elite13M 1500:00:0101:01:3001:06:5001:47:1201:47:17.6001:47:19.30+00:12:387:098.4
16SHERETOV Eugene 1030M 30-342M 1600:00:0001:03:4201:09:2001:47:3801:47:44.0501:47:44.05+00:13:027:108.4
17VANDEWALLE Billy 1227M 25-291M 1700:00:0101:02:1301:08:1501:48:0601:48:08.8001:48:10.50+00:13:297:128.3
18PRUNDÊNCIO Gonçalo 1041M Elite14M 1800:00:0100:59:0401:04:2101:48:5701:49:00.8001:49:02.45+00:14:217:168.3
19KRAWIECKI Mateusz 1424M 30-343M 1900:00:0001:02:2001:07:2701:48:5701:49:02.5001:49:02.50+00:14:217:168.3
20COLETTA Alessandro 1448M 30-344M 2000:00:0001:01:0901:06:1601:49:2101:49:25.5001:49:25.50+00:14:447:178.2
21DAM Nikolaj M 1005M Elite15M 2100:00:0100:56:4601:02:3601:49:2301:49:33.4001:49:35.30+00:14:547:188.2
22DRESCHER Jonas 1159M 18-241M 2200:00:0100:59:4801:05:3301:50:0601:50:10.2501:50:11.90+00:15:307:208.2
23SITKEVICH Anton 1427M 30-345M 2300:00:0001:02:5201:08:1101:50:3901:50:45.7001:50:45.70+00:16:047:238.1
24NOVÁK Lukáš 1033M Elite16M 2400:00:0100:59:1801:04:5301:50:4501:50:47.9001:50:49.85+00:16:087:238.1
25SZCZECHLA Grzegorz 1006M Elite17M 2500:00:0101:05:0001:10:1801:51:0901:51:15.8001:51:17.40+00:16:367:258.1
26VLAM Thijs 1275M 25-292M 2600:00:0101:04:3601:10:2101:51:2601:51:31.1501:51:32.60+00:16:517:268.1
27EVGENII Trivashkevich 1152M 18-242M 2700:00:0101:03:0901:09:1601:51:4701:51:50.7001:51:52.40+00:17:117:278
28MATUSEVICH Alexsey 1234M 25-293M 2800:00:0101:02:5801:08:3601:52:2201:52:25.5501:52:27.40+00:17:467:298
29STENBECK Fredrik 1155M 18-243M 2900:00:0200:59:2601:04:3601:52:2501:52:30.0501:52:32.20+00:17:507:308
30SPATARO Orazio 2390M Journeyman2M 3000:00:0201:52:2901:52:37.4501:52:39.90+00:17:587:308
31STRUIJK Alexander 1014M Elite18M 3100:00:0101:03:1901:09:0201:53:0001:53:05.2001:53:06.80+00:18:257:328
32BENITEZ Manuel Jesús Luján 1073M Elite19M 3200:00:0101:05:3401:11:0301:53:4301:53:48.2001:53:49.65+00:19:087:357.9
33RIJNEKER Jesper 1149M 18-244M 3300:00:0101:05:2701:11:0801:54:1401:54:19.2501:54:20.70+00:19:397:377.9
34CZERWIŃSKI Maciej 1261M 25-294M 3400:00:0001:12:2101:54:27.8501:54:27.85+00:19:467:377.9
35SCHÄFER Martin 1024M Elite20M 3500:00:0101:07:4501:13:4401:54:1901:54:28.3001:54:30.05+00:19:487:377.9
36TOMASIK Alan 1268M 25-295M 3600:00:0101:05:0601:11:0301:55:3501:55:37.8501:55:39.50+00:20:587:427.8
37KRÓL Piotr 1421M 30-346M 3700:00:0001:02:3801:08:0601:56:0901:56:14.4501:56:14.45+00:21:337:447.7
38LORIS Pintarelli 1310M 25-296M 3800:00:0201:05:4001:11:0901:56:1401:56:18.9501:56:21.30+00:21:407:457.7
39CUENCA Aitor Garde 1248M 25-297M 3900:00:0201:04:4601:10:2201:56:1601:56:20.2001:56:22.75+00:21:417:457.7
40SERAFIŃSKI Maciej 1158M 18-245M 4000:00:0101:04:1601:10:4401:56:1701:56:22.6001:56:24.50+00:21:437:457.7
41KOWALCZYK Dawid 1032M Elite21M 4100:00:0001:05:0101:12:4801:56:4601:56:52.3501:56:52.35+00:22:117:477.7
42JANUSZEWSKI Bartosz 1263M 25-298M 4200:00:0201:06:1001:12:2701:57:1901:57:23.9001:57:26.05+00:22:447:497.7
43ZAKOLODKIN Roman 1230M 25-299M 4300:00:0201:08:0901:14:3601:57:3901:57:43.6001:57:45.65+00:23:047:507.6
44KRZYSTYNIAK Robert 2195M 45-491M 4400:00:0101:06:2101:12:5801:58:4301:58:47.7501:58:48.80+00:24:077:557.6
45BRZOSKWINIA Wojciech 1239M 25-2910M 4500:00:0200:59:5701:05:1401:59:15.0501:59:17.55+00:24:367:577.5
46OSHKIN Egor 1419M 30-347M 4600:00:0001:06:5601:10:5901:59:2201:59:27.2501:59:27.25+00:24:467:577.5
47JANSSON Thomas 1035M Elite22M 4700:00:0201:08:5401:14:3401:59:4801:59:53.6001:59:55.80+00:25:147:597.5
48GANE Mr Jamie 2368M Journeyman3M 4800:00:0302:00:5702:01:04.3002:01:07.75+00:26:268:047.4
49MUSSCHE Frans 1274M 25-2911M 4900:00:0101:09:3401:15:5702:01:0302:01:07.8502:01:09.55+00:26:288:047.4
50HANYK Lukáš 1231M 25-2912M 5000:00:0101:11:3901:18:2102:01:1102:01:14.8002:01:16.30+00:26:358:057.4
51MIKRUT Jakub 1181M 18-246M 5100:00:0201:07:4901:13:4102:01:1902:01:23.3002:01:25.60+00:26:448:057.4
52TITCOMB Daniel 1170M 18-247M 5200:00:0201:05:1501:10:2302:01:4502:01:49.6502:01:51.65+00:27:108:077.4
53LEMA Damián Espasandín 1541M 30-348M 5300:00:0001:12:4801:18:3602:01:54.3502:01:54.35+00:27:138:077.4
54ALVES Duarte 1139M 18-248M 5400:00:0001:01:1901:09:3702:02:1902:02:23.7002:02:23.70+00:27:428:097.4
55CLAESSON Albin 1177M 18-249M 5500:00:0201:11:4001:18:1502:02:4302:02:47.3002:02:49.40+00:28:088:117.3
56BROEZE Tom 1071M Elite23M 5600:00:0201:09:3801:15:4402:02:5702:03:03.7002:03:06.55+00:28:258:127.3
57JOLES Roël 1452M 30-349M 5700:00:0001:10:3701:16:5802:03:0302:03:07.4502:03:07.45+00:28:268:127.3
58PELISSIER Benoit 1423M 30-3410M 5800:00:0001:13:4901:20:0602:03:0302:03:07.8002:03:07.80+00:28:268:127.3
59KUPIS Łukasz 1224M 25-2913M 5900:00:0101:04:3101:10:1502:03:0202:03:11.2002:03:12.95+00:28:318:127.3
60MENSINK Nick 1455M 30-3411M 6000:00:0001:12:3201:18:4702:03:1802:03:24.2502:03:24.25+00:28:438:137.3
61KRIUKOV Nikita 1091M Elite24M 6100:00:0101:02:4901:08:1402:03:3102:03:40.0002:03:41.65+00:29:008:147.3
62CAPARROS Nathan 1021M Elite25M 6200:00:0201:10:3501:17:0702:03:3302:03:39.0502:03:41.75+00:29:008:147.3
63SEMENCHENKO Vladimir 1252M 25-2914M 6300:00:0101:14:4201:20:5502:04:1202:04:17.0002:04:18.70+00:29:378:177.2
64OOSTEROM Frank 1008M Elite26M 6400:00:0201:02:4101:08:4802:04:2502:04:32.1002:04:34.65+00:29:538:187.2
65PRYKOWSKI Tomasz 1256M 25-2915M 6500:00:0201:12:4001:19:3902:04:4802:04:51.4002:04:54.05+00:30:128:197.2
66PROKUDIN Nikolay 1804M 40-441M 6600:00:0101:11:3601:17:0902:04:5902:05:05.4502:05:06.80+00:30:258:207.2
67RACZEK Radosław 1260M 25-2916M 6700:00:0101:08:4401:15:0602:05:1502:05:19.3502:05:21.20+00:30:398:217.2
68MILLAN Daniel Osma 1053M Elite27M 6800:00:0101:12:5101:19:1202:05:2902:05:33.8002:05:35.20+00:30:538:227.2
69DEPEDRI Raffaele 1020M Elite28M 6900:00:0201:05:4801:11:4002:05:3302:05:38.3502:05:40.40+00:30:598:227.2
70SCHINA Loris 1344M 25-2917M 7000:00:0101:05:4201:11:3302:05:3502:05:40.6502:05:41.95+00:31:008:227.2
71OLKHOVSKII Dmitri 1027M Elite29M 7100:00:0101:10:3401:16:4402:05:4402:05:48.7502:05:50.65+00:31:098:237.2
72KRAUCHANKA Aliaksandr 1649M 35-391M 7200:00:0101:16:3601:22:4002:05:4802:05:53.0002:05:54.40+00:31:138:237.1
73BUDZISZ Krzysztof 1836M 40-442M 7300:00:0101:15:0301:20:5802:06:09.8002:06:11.30+00:31:308:247.1
74BLOEM Martijn 1812M 40-443M 7400:00:0101:06:3001:11:4302:06:0702:06:10.7002:06:12.10+00:31:308:247.1
75SETTELE Stefan 1429M 30-3412M 7500:00:0001:11:5301:17:3802:06:43.8002:06:43.80+00:32:028:267.1
76REN Emil Friis 1039M Elite30M 7600:00:0201:13:4301:19:5602:07:0602:07:10.6002:07:12.60+00:32:318:287.1
77ASMUSSEN Andreas Munk 1398M 30-3413M 7700:00:0001:07:5401:14:1202:07:14.8002:07:14.80+00:32:338:287.1
78SAVANOVICH Vitali 1816M 40-444M 7800:00:0101:20:4201:26:1102:07:2502:07:31.0502:07:32.65+00:32:518:307.1
79CARMIGNANI Alessio 1401M 30-3414M 7900:00:0001:05:5901:11:5402:07:33.1502:07:33.15+00:32:518:307.1
80VIKTOROVICH Gruzdev Vladimir 1235M 25-2918M 8000:00:0301:10:0901:16:4302:07:5702:08:00.1002:08:03.50+00:33:228:327
81WILK Sylwester 1189M 18-2410M 8100:00:0101:04:4201:10:1802:08:1602:08:21.7002:08:22.90+00:33:418:337
82CHRISTENSEN Katja 1101W Elite1K 100:00:0101:13:2001:20:5002:08:4802:08:52.6002:08:54.15+00:34:128:357
83KAŁUŻNY Adam 1466M 30-3415M 8200:00:0001:12:5001:18:3902:08:5402:08:59.4502:08:59.45+00:34:188:357
84DRAGSTED Andreas 1038M Elite31M 8300:00:0101:14:5901:21:3102:09:0102:09:05.3002:09:06.90+00:34:258:367
85BERNHARDSSON Kristofer Abrahamsson 1082M Elite32M 8400:00:0201:15:1601:21:2702:09:1202:09:17.2002:09:19.45+00:34:388:377
86MACÍAS David Delgado 1335M 25-2919M 8500:00:0101:15:1201:21:3202:09:2802:09:31.0502:09:32.70+00:34:518:386.9
87BLANKENBURGH David 1317M 25-2920M 8600:00:0101:12:5601:19:2302:09:3002:09:34.7502:09:36.45+00:34:558:386.9
88BONAITA Alex 1668M 35-392M 8700:03:0001:15:3201:21:1002:06:5102:06:55.5002:09:56.30+00:35:158:277.1
89CAZZAVACCA Alessandro 1609M 30-3416M 8800:00:0101:18:4601:24:0502:10:0402:10:09.1002:10:11.00+00:35:298:406.9
90NIKONOV Maksim 1640M 35-393M 8900:00:0101:15:1101:20:4802:10:2602:10:30.5002:10:32.20+00:35:508:426.9
91FARKOWSKI Konrad 1475M 30-3417M 9000:00:0001:12:5601:19:0702:11:0602:11:10.0502:11:10.05+00:36:288:446.9
92KARLSSON Karin 1135W Elite2K 200:00:0101:08:5501:15:1602:11:0802:11:13.7002:11:15.20+00:36:338:446.9
93SABA Alessandro 1057M Elite33M 9100:00:0201:04:1001:08:5102:11:1902:11:29.7502:11:31.80+00:36:508:456.8
94LAGRAND Stijn 1962M 13-171M 9200:00:0101:16:3401:22:0802:11:2402:11:31.6002:11:32.90+00:36:518:466.8
95TARKA Andrzej 1821M 40-445M 9300:00:0101:18:3401:24:5802:11:2802:11:32.3502:11:34.20+00:36:528:466.8
96CHRISTENSEN Brian Viborg 2242M 45-492M 9400:00:0201:15:4101:21:5402:11:3102:11:35.8502:11:38.00+00:36:568:466.8
97ЕВГЕНИЙ Проскуряков 1055M Elite34M 9500:00:0201:15:1401:22:0002:12:0302:12:07.4502:12:09.55+00:37:288:486.8
98DICKSON Mark 1807M 40-446M 9600:00:0101:14:3901:20:4202:12:3502:12:38.3002:12:39.80+00:37:588:506.8
99DANIELKIEWICZ Tomasz 1422M 30-3418M 9700:00:0001:06:0301:12:4202:13:1002:13:15.1502:13:15.15+00:38:338:536.8
100BRØNDSEL Jonas 1084M Elite35M 9800:00:0101:05:0101:10:5302:13:2202:13:25.4002:13:26.85+00:38:458:536.7
101BELOV Artur 1052M Elite36M 9900:00:0101:13:0401:19:4902:13:2702:13:33.1002:13:34.80+00:38:538:546.7
102ŁUKASZ Lorenc 1830M 40-447M 10000:00:0101:13:2101:19:4402:13:4702:13:54.4502:13:55.55+00:39:148:556.7
103GYÖMREI Máté 1557M 30-3419M 10100:02:0101:19:2401:25:3502:12:0002:12:05.7002:14:07.55+00:39:268:486.8
104VILA Jose 1169M 18-2411M 10200:00:0101:13:3801:20:3602:14:5102:14:55.3502:14:56.70+00:40:158:596.7
105LINTHORST Jesse 1192M 18-2412M 10300:00:0101:10:2101:16:2402:14:5002:14:55.5002:14:57.00+00:40:158:596.7
106MADSEN Tommy 1631M 35-394M 10400:00:0101:12:2801:18:2202:15:1302:15:19.3002:15:20.60+00:40:399:016.7
107HORWARD Adrien 1285M 25-2921M 10500:00:0201:10:4901:17:0602:15:5802:16:05.1002:16:07.10+00:41:259:046.6
108JAROSZ Dawid 1555M 30-3420M 10600:00:0001:22:0401:28:0502:16:3702:16:42.4002:16:42.40+00:42:019:066.6
109GORDILLO Israel Vargas 1202M 18-2413M 10700:00:0101:17:2801:23:5002:17:2302:17:28.6002:17:30.25+00:42:499:096.5
110MIRA Lorena González 1125W Elite3K 300:00:0001:19:2501:26:1002:17:3002:17:35.0002:17:35.00+00:42:539:106.5
111SENTEN Simon Van 1298M 25-2922M 10800:00:0101:14:3601:21:0902:17:3302:17:38.4502:17:40.20+00:42:589:106.5
112REZNIK Anton 1243M 25-2923M 10900:00:0201:21:0601:28:3502:17:3702:17:42.3502:17:44.50+00:43:039:106.5
113SJÖLIN Johan 1487M 30-3421M 11000:00:0001:21:3401:27:2702:17:4602:17:52.2002:17:52.20+00:43:109:116.5
114NITTIS Andrea De 1328M 25-2924M 11100:00:0101:18:3201:24:3002:17:5402:18:00.0002:18:01.60+00:43:209:126.5
115DOMÍNGUEZ Eduardo Díaz 1083M Elite37M 11200:00:0101:17:5301:23:5002:18:0402:18:10.4002:18:11.60+00:43:309:126.5
116KUIK Thomas 1140M 18-2414M 11300:00:0101:18:0201:25:0002:18:1702:18:23.7502:18:25.70+00:43:449:136.5
117BURÉN Johan 1639M 35-395M 11400:00:0101:17:5201:23:4402:18:3102:18:34.5002:18:36.20+00:43:549:146.5
118SAŁATA Marcin 1478M 30-3422M 11500:00:0001:22:5301:28:4602:18:3202:18:36.4502:18:36.45+00:43:559:146.5
119MĘDYGRAŁ Krystian 1290M 25-2925M 11600:00:0101:19:3101:26:0002:18:50.8502:18:52.70+00:44:119:156.5
120MÉDARD Olivier 1446M 30-3423M 11700:00:0001:18:4401:24:2602:18:5302:18:59.4502:18:59.45+00:44:189:156.5
121JEVTIC Sasa 1518M 30-3424M 11800:00:0001:17:1501:23:1102:19:1802:19:22.0002:19:22.00+00:44:409:176.5
122CANACCINI Denis 1819M 40-448M 11900:00:0101:17:3701:23:3002:19:1602:19:21.0002:19:22.20+00:44:409:176.5
123VASYA Dudnikov 1144M 18-2415M 12000:00:0101:13:0001:19:2102:19:3202:19:36.3502:19:38.30+00:44:579:186.4
124CAMBRIDGE Luke 1605M 30-3425M 12100:00:0201:23:2201:29:2502:19:5602:20:01.0002:20:03.70+00:45:229:206.4
125GRZONDKO Mateusz 1272M 25-2926M 12200:00:0101:19:4401:26:4402:20:18.9502:20:20.80+00:45:399:216.4
126VERHEUL Paul Pieter Cornelis 1316M 25-2927M 12300:00:0101:18:4101:25:4002:20:23.3002:20:25.15+00:45:439:216.4
127YAROSLAV Slavushchev 1236M 25-2928M 12400:00:0201:14:4601:22:0102:20:1902:20:23.3002:20:25.35+00:45:449:216.4
128GUIBERT Romain 1245M 25-2929M 12500:00:0101:15:1701:21:5202:21:0302:21:07.7502:21:09.40+00:46:289:246.4
129SINIGAGLIA William 1505M 30-3426M 12600:00:0001:17:3801:24:2602:21:3002:21:38.8002:21:38.80+00:46:579:266.4
130JAKUBCZAK Marcin 1670M 35-396M 12700:00:0101:23:3201:29:4902:21:3602:21:40.2002:21:41.50+00:47:009:266.4
131VORVIS Chris 1067M Elite38M 12800:00:0101:21:2501:28:0202:22:0902:22:16.5502:22:17.80+00:47:369:296.3
132BUCCARELLA Luca 1151M 18-2416M 12900:00:0101:16:4401:23:2502:22:1202:22:17.0002:22:18.50+00:47:379:296.3
133SHKURLOV Aleksandr 1402M 30-3427M 13000:00:0001:25:1101:30:5702:22:2902:22:35.0502:22:35.05+00:47:539:306.3
134OŚLIZŁO Marek 1146M 18-2417M 13100:00:0101:10:5501:16:2202:22:4202:22:47.5002:22:49.45+00:48:089:316.3
135PARYGINA Svetlana 2026W 25-291K 400:00:0101:24:2101:30:4902:22:4402:22:49.2002:22:50.30+00:48:099:316.3
136JAGODZIŃSKI Karol 1293M 25-2930M 13200:00:0201:21:2901:27:5702:23:17.5002:23:19.80+00:48:389:336.3
137PASTUSZKA Paweł 1449M 30-3428M 13300:00:0001:22:2501:28:1302:23:1802:23:22.1002:23:22.10+00:48:409:336.3
138MARUSZEWSKI Marcin 1624M 35-397M 13400:00:0101:24:5001:31:0002:23:5902:24:03.0002:24:04.60+00:49:239:366.2
139NIJLEN Itse Van 1154M 18-2418M 13500:00:0101:14:1701:20:4302:24:2802:24:36.3502:24:38.00+00:49:569:386.2
140ZGUTKA Tomasz 2212M 45-493M 13600:00:0101:18:2201:24:2802:24:5302:24:57.3002:24:59.25+00:50:189:396.2
141MOSE Kristian 1513M 30-3429M 13700:00:0001:19:0301:25:2802:25:0802:25:12.0002:25:12.00+00:50:309:406.2
142BERTOLASI Marco 1535M 30-3430M 13800:00:0001:20:2301:26:1602:25:2002:25:27.6002:25:27.60+00:50:469:416.2
143HEIJLIGER Daan 2192M 45-494M 13900:00:0101:14:5401:21:0502:25:2302:25:28.9002:25:30.60+00:50:499:416.2
144FRANCESCHI Marco 1313M 25-2931M 14000:00:0101:17:2101:23:1402:25:2402:25:29.4002:25:31.25+00:50:509:426.2
145RUYTER Roy De 1092M Elite39M 14100:00:0201:22:2901:29:2902:25:2702:25:34.1502:25:36.60+00:50:559:426.2
146ALMERSKÄR Viktor 1150M 18-2419M 14200:00:0201:23:2201:30:3602:25:3202:25:36.8002:25:39.00+00:50:579:426.2
147TOMAKA Tomasz 1284M 25-2932M 14300:00:0201:23:4901:30:5402:26:1102:26:17.0502:26:19.35+00:51:389:456.2
148SCHUH Martin 1077M Elite40M 14400:00:0201:21:1701:28:1002:26:1902:26:22.6502:26:25.00+00:51:439:456.1
149MAES Michaël 1266M 25-2933M 14500:00:0201:16:4001:23:0102:26:1902:26:23.2002:26:25.30+00:51:449:456.1
150PETELCZYC Piotr 2201M 45-495M 14600:00:0101:21:4801:28:5702:26:3302:26:36.5002:26:37.85+00:51:569:466.1
151KOŁODZIEJCZYK Kamil 1460M 30-3431M 14700:00:0001:14:5301:21:0602:26:5902:27:05.5002:27:05.50+00:52:249:486.1
152SHIPLEY Chris 1410M 30-3432M 14800:00:0001:17:4301:23:3602:28:0102:28:06.4002:28:06.40+00:53:259:526.1
153EVENSEN Ulrikke 1100W Elite4K 500:00:0101:04:1601:09:2402:28:3302:28:38.3002:28:40.05+00:53:589:546.1
154JANSEN C.a. 1103W Elite5K 600:00:0101:19:1401:25:5002:29:0902:29:13.9002:29:15.45+00:54:349:566
155JUSTESEN Simon 1384M 25-2934M 14900:00:0201:23:5101:30:5602:29:3502:29:40.6502:29:43.35+00:55:029:586
156SOBIERAJSKI Krzysztof 1966M 13-172M 15000:00:0201:25:1301:32:1102:29:4202:29:47.7002:29:49.90+00:55:089:596
157SZCZEPANIAK Paweł 1225M 25-2935M 15100:00:0101:22:3301:28:5302:29:5002:29:53.7002:29:55.35+00:55:149:596
158MEEL Jim Van Der 1399M 30-3433M 15200:00:0001:20:4001:26:4002:29:5602:30:01.5502:30:01.55+00:55:2010:006
159KOŁODZIEJ Krystian 1510M 30-3434M 15300:00:0001:26:2701:32:5102:30:1002:30:14.9502:30:14.95+00:55:3310:006
160HÄRKÖNEN Elin 1132W Elite6K 700:00:0101:17:1101:24:0102:30:1902:30:22.9002:30:24.80+00:55:4310:016
161BOARDER Robert 1805M 40-449M 15400:00:0201:28:2201:34:3302:30:2402:30:29.3002:30:31.35+00:55:5010:016
162PRAT Victor Suarez 1080M Elite41M 15500:00:0101:20:2601:26:5602:30:2302:30:30.5502:30:32.30+00:55:5110:026
163ЗАХАРКИН Сергей 1929M 40-4410M 15600:00:0101:29:3601:35:0002:30:4302:30:47.1002:30:48.40+00:56:0710:036
164TRĄBIŃSKI Grzegorz 1638M 35-398M 15700:00:0101:27:1401:33:5502:31:3202:31:37.1502:31:38.55+00:56:5710:065.9
165WISPELWEIJ Sem 1142M 18-2420M 15800:00:0101:18:0901:25:0002:32:0502:32:10.9002:32:12.40+00:57:3110:085.9
166DASZKIEWICZ Małgorzata 1118W Elite7K 800:00:0101:21:0801:27:4902:32:1902:32:22.7002:32:24.65+00:57:4310:095.9
167BÄR Marcel 1430M 30-3435M 15900:00:0001:27:0201:33:3302:32:3202:32:38.5002:32:38.50+00:57:5710:105.9
168MÓWIŃSKI Patryk 1277M 25-2936M 16000:00:0201:24:4301:31:0802:32:5802:33:02.9002:33:05.20+00:58:2310:125.9
169MARTIN Darren 1311M 25-2937M 16100:00:0201:14:3301:21:1102:33:0702:33:11.8502:33:14.25+00:58:3310:125.9
170HORVAT Zsolt 1977M 13-173M 16200:00:0101:24:4001:31:1602:33:2902:33:33.9502:33:35.85+00:58:5410:145.9
171SCHYBERG Oscar 1788M 35-399M 16300:00:0301:33:2001:39:1302:33:3302:33:36.5502:33:39.95+00:58:5810:145.9
172KALININ Jarosław 1064M Elite42M 16400:00:0101:14:3401:20:4802:33:3502:33:42.3002:33:43.60+00:59:0210:145.9
173SŁODOWNIK Dominik 1212M 18-2421M 16500:00:0201:26:4301:35:5602:33:44.0002:33:46.25+00:59:0510:145.9
174MAKARSKI Siarhei 2409M Journeyman4M 16600:00:0101:30:2001:37:0202:33:4002:33:46.0002:33:47.75+00:59:0610:155.9
175ALEKSEI Giatcintov 1770M 35-3910M 16700:00:0101:34:3701:41:1802:33:4402:33:49.6502:33:51.25+00:59:1010:155.9
176FIŠER Rostislav 2270M 45-496M 16800:00:0201:13:5701:20:1702:33:5202:33:56.5502:33:58.60+00:59:1710:155.8
177TIMMERMANS Geert 1280M 25-2938M 16900:00:0101:28:5301:35:4002:34:1202:34:17.5502:34:19.35+00:59:3810:175.8
178SLIEPKA Ivan 2410M Journeyman5M 17000:00:0201:35:1701:41:5902:34:1302:34:20.7502:34:23.45+00:59:4210:175.8
179FAGERSTRÖM Po 1940M 40-4411M 17100:00:0101:35:5701:41:1502:34:2702:34:31.6002:34:33.15+00:59:5110:185.8
180ARCE Domingo Buendia 1173M 18-2422M 17200:00:0101:27:0801:34:2702:34:32.1502:34:33.80+00:59:5210:185.8
181BERTA Paolo 1827M 40-4412M 17300:00:0101:25:5001:31:2502:34:2802:34:34.9502:34:36.90+00:59:5510:185.8
182CATELLANI Mirco 1581M 30-3436M 17400:00:0001:30:2001:35:5102:34:3502:34:40.4502:34:40.45+00:59:5910:185.8
183SALOMÄKI Ville 2398M Journeyman6M 17500:00:0201:22:5601:29:3902:34:4502:34:51.0002:34:53.40+01:00:1210:195.8
184HANSEN Stefan 1650M 35-3911M 17600:00:0201:19:1501:24:5602:34:5702:35:04.1002:35:06.15+01:00:2410:205.8
185POWELL Alf 1971M 13-174M 17700:00:0101:33:4201:40:3102:35:2602:35:31.8502:35:33.45+01:00:5210:225.8
186BANNISTER Alex 1564M 30-3437M 17800:00:0001:25:1001:31:2502:35:3702:35:41.8002:35:41.80+01:01:0010:225.8
187DAVID Grognet 1185M 18-2423M 17900:00:0101:15:3301:22:1702:35:5702:36:02.1502:36:03.95+01:01:2210:245.8
188VRIES Florian De 1420M 30-3438M 18000:00:0001:24:5101:32:2402:36:2602:36:34.1502:36:34.15+01:01:5210:265.7
189RAMOS Sérgio 2196M 45-497M 18100:00:0101:30:4901:38:1902:36:3002:36:35.6502:36:37.15+01:01:5510:265.7
190HELGERS Niels 1733M 35-3912M 18200:00:0101:19:4101:26:2702:36:2902:36:36.5002:36:38.15+01:01:5610:265.7
191WÓJCIK Adam 1219M 18-2424M 18300:00:0201:41:1701:46:1802:36:3502:36:40.3502:36:42.40+01:02:0110:265.7
192ONISZCZUK Bartosz 1687M 35-3913M 18400:00:0101:28:5801:35:1302:36:3202:36:45.5002:36:46.80+01:02:0510:275.7
193BUENK Peter 1815M 40-4413M 18500:00:0101:33:3801:39:2502:37:4802:37:53.9002:37:55.30+01:03:1410:315.7
194SILVA André 1572M 30-3439M 18600:00:0001:30:2701:38:2302:37:5202:37:58.2002:37:58.20+01:03:1610:315.7
195"CHAPLÍN" Jose 1944M 40-4414M 18700:00:0101:30:1901:36:3702:37:5902:38:07.1002:38:08.20+01:03:2610:325.7
196HANSEN Mads Voss 1183M 18-2425M 18800:00:0101:11:0101:17:1902:38:3002:38:33.5502:38:35.50+01:03:5410:345.7
197HANDLER Christian 1043M Elite43M 18900:00:0101:16:0601:21:5102:38:3802:38:46.9002:38:48.70+01:04:0710:355.7
198MARTYIN László 1279M 25-2939M 19000:00:0201:17:5001:24:0202:38:5802:39:01.4502:39:03.75+01:04:2210:365.7
199WALTILLA Marcus 1578M 30-3440M 19100:00:0001:28:4101:35:3702:39:0902:39:16.1502:39:16.15+01:04:3410:375.7
200PEDERSEN Christian 2190M 45-498M 19200:00:0201:26:5701:34:1202:39:1402:39:18.4502:39:20.70+01:04:3910:375.6
201HAUSMANN Frank 1058M Elite44M 19300:00:0201:12:0701:17:1302:39:2502:39:34.4002:39:36.50+01:04:5510:385.6
202GOLTERMANN Arne 1070M Elite45M 19400:00:0101:21:2801:27:4102:39:4402:39:48.8502:39:50.75+01:05:0910:395.6
203BURTON James 1630M 35-3914M 19500:00:0101:13:1401:19:0402:39:5002:39:55.3002:39:56.70+01:05:1510:395.6
204PŁÓCIENNIK Piotr 1461M 30-3441M 19600:00:0001:37:4601:44:2802:40:1402:40:19.9002:40:19.90+01:05:3810:415.6
205GAŁDYN Kamil 1163M 18-2426M 19700:00:0201:09:1201:14:4202:40:2702:40:33.4502:40:35.60+01:05:5410:425.6
206SLITS Peter 2273M 50-541M 19800:00:0001:24:4401:31:2102:40:3102:40:37.4002:40:37.40+01:05:5610:425.6
207БЕЗЛЕПКИН Андрей 1880M 40-4415M 19900:00:0001:30:5101:36:5402:40:4202:40:45.5502:40:46.50+01:06:0510:435.6
208MACHTYL Zygmunt 2235M 45-499M 20000:00:0001:23:4501:30:5002:40:4402:40:49.3502:40:49.35+01:06:0810:435.6
209LEJK Beniamin 1357M 25-2940M 20100:00:0101:26:0001:32:5402:40:5202:40:56.0502:40:57.85+01:06:1610:435.6
210ЮРЬЕВИЧ Петров Виктор 1086M Elite46M 20200:00:0201:29:1501:36:4002:41:0302:41:09.2002:41:11.55+01:06:3010:445.6
211SAVIN Aleksei 1408M 30-3442M 20300:00:0001:24:5401:31:5602:41:1802:41:22.6002:41:22.60+01:06:4110:455.6
212CAUDELI Jose Miguel Pericás 1409M 30-3443M 20400:00:0001:09:4101:18:4802:41:3202:41:38.4502:41:38.45+01:06:5710:465.6
213FILIPOVICH Aliaksei 1675M 35-3915M 20500:00:0101:25:1801:31:3502:41:4302:41:48.5002:41:50.10+01:07:0810:475.6
214LARSSON Johannes 1327M 25-2941M 20600:00:0201:30:1701:36:5902:42:3002:42:33.9002:42:36.50+01:07:5510:505.5
215SOBIERAJSKI Bolesław 1967M 13-175M 20700:00:0101:38:5901:47:3302:43:0402:43:09.2002:43:10.95+01:08:2910:525.5
216TROMBELLI Marco 1759M 35-3916M 20800:00:0101:32:3401:39:4702:43:2502:43:31.0502:43:33.00+01:08:5110:545.5
217BYRCZEK Michał 1493M 30-3444M 20900:00:0001:30:5801:38:1302:43:5802:44:04.1502:44:04.15+01:09:2210:565.5
218GERICH Jan Von 1904M 40-4416M 21000:00:0101:35:3201:41:1002:44:0202:44:06.2502:44:07.90+01:09:2610:565.5
219ARIBAUD Baptiste 1056M Elite47M 21100:00:0101:13:0701:19:5802:44:3902:44:45.3502:44:47.30+01:10:0610:595.5
220SÜHLER Kim 1886M 40-4417M 21200:00:0101:31:4101:37:4702:45:0102:45:06.1502:45:08.00+01:10:2611:005.5
221KRAUS Christian 1022M Elite48M 21300:00:0101:19:3601:25:3302:45:3502:45:39.7002:45:41.60+01:11:0011:025.4
222COMMANDEUR Tjeerd 1522M 30-3445M 21400:00:0001:30:0601:37:2802:45:5602:46:02.5002:46:02.50+01:11:2111:045.4
223MARCO Bischof 1338M 25-2942M 21500:00:0201:19:3901:26:2302:45:5402:46:03.6502:46:05.80+01:11:2411:045.4
224DOLATA Krzysztof 1695M 35-3917M 21600:00:0101:35:0301:42:2302:47:1202:47:15.7002:47:17.65+01:12:3611:095.4
225SRNSKÝ Daniel 1190M 18-2427M 21700:00:0201:30:5001:38:3802:47:2602:47:32.0502:47:34.05+01:12:5211:105.4
226PONTICELLI Luigi 1380M 25-2943M 21800:00:0202:47:3102:47:36.5002:47:38.95+01:12:5711:105.4
227LLAPASSET Victor 1314M 25-2944M 21900:00:0101:26:5901:34:3002:47:5802:48:05.8502:48:07.80+01:13:2611:125.4
228ГОВОРОВ Андрей 1045M Elite49M 22000:00:0201:29:0901:36:3602:48:1502:48:19.2002:48:21.50+01:13:4011:135.3
229VEPŘEK Martin 1249M 25-2945M 22100:00:0101:23:4901:30:3302:48:4302:48:47.3002:48:49.15+01:14:0711:155.3
230ÖBERG Robin 1515M 30-3446M 22200:00:0001:35:3301:42:2702:49:1402:49:21.4002:49:21.40+01:14:4011:175.3
231MILHANO Carlos 2299M 50-542M 22300:00:0201:35:1601:41:4002:49:2602:49:34.3002:49:36.90+01:14:5511:185.3
232PELLEREI Luca 2267M 45-4910M 22400:00:0101:26:0001:32:2902:50:0302:50:08.8502:50:10.50+01:15:2911:205.3
233LINDSTRÖM Mattias 1242M 25-2946M 22500:00:0201:34:0901:42:2102:50:1802:50:24.3502:50:27.30+01:15:4611:215.3
234DEMONTY Loic 1160M 18-2428M 22600:00:0201:22:0301:29:4202:50:2302:50:31.6502:50:33.80+01:15:5211:225.3
235REKUTIN Ivan 1451M 30-3447M 22700:00:0001:26:1401:33:0002:50:3402:50:38.8502:50:38.85+01:15:5711:225.3
236HEER Erik De 2285M 50-543M 22800:00:0001:22:1301:28:4402:50:4802:50:54.8502:50:54.85+01:16:1311:235.3
237GROOT Bo De 2002W 18-241K 900:00:0101:33:5301:41:4102:50:4902:50:54.7502:50:56.40+01:16:1511:235.3
238LENOIR Cyril 1283M 25-2947M 22900:00:0201:38:4701:46:4002:51:1402:51:21.7002:51:23.80+01:16:4211:255.3
239ROBBEMOND Robin 2203M 45-4911M 23000:00:0201:32:2101:40:4302:51:2102:51:26.0002:51:28.30+01:16:4711:255.2
240BUYLE Michiel 1273M 25-2948M 23100:00:0101:20:2301:27:1102:51:4302:51:50.3502:51:52.10+01:17:1011:275.2
241PORTA Simona 1114W Elite8K 1000:00:0001:38:1201:45:1002:52:4302:52:49.3002:52:49.30+01:18:0811:315.2
242KAREL Štěpán 1072M Elite50M 23200:00:0101:10:2101:16:4402:52:4702:52:52.8502:52:54.75+01:18:1311:315.2
243SAENZ Juancri 1952M 40-4418M 23300:00:0001:38:2001:45:1302:53:0302:53:10.3002:53:11.15+01:18:2911:325.2
244LEGANDER Simon 1324M 25-2949M 23400:00:0201:24:2701:32:0702:53:1102:53:18.7502:53:20.80+01:18:3911:335.2
245GOMEZ Manuel Valero 1837M 40-4419M 23500:00:0101:39:2001:45:3602:53:1802:53:25.0502:53:26.70+01:18:4511:335.2
246LIUTKUS Dainius 1397M 30-3448M 23600:00:0001:19:1501:24:2402:53:4002:53:46.3502:53:46.35+01:19:0511:355.2
247PROKUDIN Yury 1972M 13-176M 23700:00:0101:49:3401:58:2002:54:1302:54:17.6002:54:19.55+01:19:3811:375.2
248NUTIL Michal 1345M 25-2950M 23800:00:0201:19:5201:25:5802:54:1402:54:17.3002:54:19.85+01:19:3811:375.2
249MARCHAND Manuel 1855M 40-4420M 23900:00:0201:36:0701:42:2702:54:1402:54:19.8002:54:22.45+01:19:4111:375.2
250OVECHKIN Taras 1686M 35-3918M 24000:00:0101:39:1501:46:1902:54:1602:54:22.6002:54:23.80+01:19:4211:375.2
251NOVOSEL Mario 2419M Journeyman7M 24100:00:0201:49:0401:57:5402:54:2002:54:27.6502:54:30.45+01:19:4911:375.2
252JOHANSSON Elin 1119W Elite9K 1100:00:0101:21:5101:28:2902:54:3302:54:37.9502:54:39.75+01:19:5811:385.2
253WAGEMANS Tom 1426M 30-3449M 24200:00:0001:11:4701:18:0002:54:4602:54:50.5002:54:50.50+01:20:0911:395.1
254SAVITSKI Andrei 1766M 35-3919M 24300:00:0101:35:1701:41:1202:54:4702:54:51.1502:54:53.05+01:20:1111:395.1
255THUESEN Margrethe Langhoff 1137W Elite10K 1200:00:0001:17:5401:23:4902:54:4602:54:53.1002:54:53.10+01:20:1111:395.1
256CRUZ Sebastien 1702M 35-3920M 24400:00:0101:20:0901:25:2702:54:4702:54:54.7502:54:56.40+01:20:1511:395.1
257LARSSON Toni 1378M 25-2951M 24500:00:0201:37:3501:45:0802:55:0702:55:10.7002:55:13.55+01:20:3211:405.1
258GIESBERTS Valérie 2320W 13-171K 1300:00:0101:39:1901:48:2202:55:0902:55:13.6002:55:15.30+01:20:3411:405.1
259ZAWILIŃSKI Mateusz 1351M 25-2952M 24600:00:0101:38:4501:45:1902:55:2702:55:30.8502:55:32.20+01:20:5011:425.1
260SEBASTIEN Fage 1941M 40-4421M 24700:00:0101:42:5201:49:5702:55:5402:56:00.6502:56:02.25+01:21:2111:445.1
261LILIENBERG Johan 1842M 40-4422M 24800:00:0101:40:1201:47:1202:55:5502:56:01.4002:56:03.30+01:21:2211:445.1
262KAMIESHKOV Denys 1806M 40-4423M 24900:00:0101:44:4301:51:0602:56:1302:56:18.4002:56:20.10+01:21:3811:455.1
263KATOLIKAU Raman 1400M 30-3450M 25000:00:0001:16:5501:22:4702:56:2602:56:37.5002:56:37.50+01:21:5611:465.1
264GESSLER Sergej 1447M 30-3451M 25100:00:0001:40:0801:47:4202:56:3702:56:43.6002:56:43.60+01:22:0211:465.1
265FERRIS Víctor Parra 1900M 40-4424M 25200:00:0101:45:3801:52:4302:56:4002:56:45.7002:56:47.05+01:22:0511:475.1
266LINDBERG Nicklas 1905M 40-4425M 25300:00:0101:37:0001:43:3202:56:4402:56:49.0002:56:50.50+01:22:0911:475.1
267MATUSIK Adam 1534M 30-3452M 25400:00:0001:36:1601:43:1602:57:0102:57:08.2502:57:08.25+01:22:2711:485.1
268VILKOV Grigory 1802M 40-4426M 25500:00:0101:38:1801:45:1202:57:0802:57:13.1502:57:15.05+01:22:3311:485.1
269ANANIN Artem 1406M 30-3453M 25600:00:0001:38:4201:45:4202:57:2102:57:26.9002:57:26.90+01:22:4511:495.1
270KÖNIG Alexander 2412M Journeyman8M 25700:00:0001:34:2401:39:1602:57:5802:58:01.9502:58:02.90+01:23:2111:525.1
271ALBERTOS Javier 1933M 40-4427M 25800:00:0101:36:4901:44:0202:58:0402:58:09.2002:58:10.20+01:23:2811:525.1
272SOUSA Bruno 1817M 40-4428M 25900:00:0201:55:1402:01:4402:58:0502:58:13.8502:58:16.20+01:23:3411:525
273KURACH Stanislaw 2288M 50-544M 26000:00:0001:36:3301:44:1702:58:5302:58:57.8002:58:57.80+01:24:1611:555
274NOVIN Thomas 1747M 35-3921M 26100:00:0201:43:4201:50:2102:59:0502:59:08.8502:59:11.75+01:24:3011:565
275JAKOBSSON Niklas 1559M 30-3454M 26200:00:0001:30:1001:36:2902:59:1502:59:20.7502:59:20.75+01:24:3911:575
276RÖNNBERG Mikael 1870M 40-4429M 26300:00:0201:36:4301:43:0902:59:2002:59:24.8502:59:27.55+01:24:4611:575
277GAWRYLUK Marcin 1587M 30-3455M 26400:00:0201:26:0601:32:4102:59:2302:59:29.9002:59:31.95+01:24:5011:575
278GUIJARRO Victor Pezonaga 1391M 25-2953M 26500:00:0101:20:3001:26:5403:00:01.0003:00:02.15+01:25:2012:005
279CRESPO Antonio Rubio 1303M 25-2954M 26600:00:0201:34:5701:41:5203:00:0403:00:08.7003:00:11.25+01:25:3012:005
280KRÁSA David 1811M 40-4430M 26700:00:0201:40:0201:47:0103:00:3703:00:43.2003:00:45.35+01:26:0412:025
281LINDSGREN Christina 2165W 40-441K 1400:00:0101:36:3301:44:3103:00:5303:00:57.0503:00:58.75+01:26:1712:035
282CIMLER Jiří 1042M Elite51M 26800:00:0201:34:2901:40:5203:01:1703:01:24.1503:01:26.35+01:26:4512:055
283YANN Chambert 1526M 30-3456M 26900:00:0001:40:5701:47:5803:01:26.5503:01:26.55+01:26:4512:055
284REGNELL Fredrick 1579M 30-3457M 27000:00:0001:46:2601:53:3003:01:2703:01:31.5003:01:31.50+01:26:5012:065
285JOULIN Lisa 2170W 40-442K 1500:00:0101:33:0201:40:0103:01:2503:01:31.1503:01:32.65+01:26:5112:065
286CAVICCHIOLO Luca 1355M 25-2955M 27100:00:0101:25:2701:31:5303:01:3903:01:44.9503:01:46.45+01:27:0512:075
287WISSING Arjan 1659M 35-3922M 27200:00:0101:37:2301:44:5603:02:1203:02:19.6503:02:20.65+01:27:3912:094.9
288NIELSEN Søren 1543M 30-3458M 27300:00:0001:31:3901:38:3303:02:5203:02:55.8503:02:55.85+01:28:1412:114.9
289BERKES Marton 1442M 30-3459M 27400:00:0001:45:3101:52:4503:03:2903:03:33.0003:03:33.00+01:28:5112:144.9
290LEVERAAS Katrine Haaland 2043W 25-292K 1600:00:0101:31:4501:38:2503:03:5303:03:57.5003:03:59.35+01:29:1812:154.9
291HENDZEL Miłosz 1667M 35-3923M 27500:00:0101:39:4201:46:1603:04:0003:04:08.9003:04:10.70+01:29:2912:164.9
292TOPIČ Karel 1834M 40-4431M 27600:00:0201:48:1601:56:4603:04:0903:04:16.5503:04:19.30+01:29:3812:174.9
293CUESTA Alberto Sanz 2384M Journeyman9M 27700:00:0403:04:0003:04:18.5003:04:22.70+01:29:4112:174.9
294ENDERBY Rich 1729M 35-3924M 27800:00:0201:44:3101:51:5303:04:21.7503:04:24.10+01:29:4212:174.9
295ROSECKÝ Patrik 1251M 25-2956M 27900:00:0201:31:2701:39:0503:04:1603:04:24.0003:04:26.60+01:29:4512:174.9
296KADIJA Rigers 1019M Elite52M 28000:00:0101:06:1601:11:5603:04:4803:04:52.7003:04:54.30+01:30:1312:194.9
297RYDSTRÖM Johan 1674M 35-3925M 28100:00:0101:46:4601:54:3603:06:3003:06:36.0503:06:37.75+01:31:5612:264.8
298MASŁOWSKI Wojciech 2416M Journeyman10M 28200:00:0101:44:4701:50:5503:06:2703:06:38.0503:06:39.30+01:31:5812:264.8
299GARCIA Adrián Ruiz 1405M 30-3460M 28300:00:0001:34:4601:42:0503:06:2803:06:50.8003:06:50.80+01:32:0912:274.8
300KRUS Viktor 1620M 35-3926M 28400:00:0201:53:1002:00:3003:07:1703:07:24.2003:07:26.90+01:32:4512:294.8
301CAPPELEN Dan 1799M 35-3927M 28500:00:0001:31:0101:37:4803:07:4003:07:45.0503:07:45.05+01:33:0312:314.8
302DIMITRY Dotrimont 1367M 25-2957M 28600:00:0101:39:1001:45:4003:07:4003:07:46.1003:07:47.30+01:33:0612:314.8
303HELLSTRAND Rickard 2211M 45-4912M 28700:00:0201:17:5201:24:5003:07:5603:08:06.1503:08:08.15+01:33:2612:324.8
304BOMBA Piotr 1528M 30-3461M 28800:00:0001:48:3301:56:2803:08:0903:08:17.5003:08:17.50+01:33:3612:334.8
305PIANO Andrea Del 1254M 25-2958M 28900:00:0101:11:2701:17:5503:09:0103:09:10.1503:09:11.65+01:34:3012:364.8
306BOCHAROV Georgii 1061M Elite53M 29000:00:0101:27:4101:33:4503:08:3303:09:46.8503:09:48.55+01:35:0712:394.7
307WITEK Paweł 1373M 25-2959M 29100:00:0201:38:2901:45:5403:09:5703:10:03.3003:10:05.40+01:35:2412:404.7
308TAYLOR Adam 1765M 35-3928M 29200:00:0201:44:5801:52:0403:10:4203:10:47.2003:10:49.85+01:36:0812:434.7
309JOHNSTON Keith 1594M 30-3462M 29300:05:0201:28:0601:34:1003:06:1203:06:17.0003:11:19.25+01:36:3812:254.8
310GUDMUNDSSON Zebastian 1034M Elite54M 29400:00:0101:13:5301:19:5603:11:24.3503:11:26.20+01:36:4412:454.7
311ATAZ Daniel Blanco 1341M 25-2960M 29500:00:0101:33:3001:40:0103:11:1903:11:25.1003:11:26.65+01:36:4512:454.7
312FABRÈGUE Rémi 1395M 30-3463M 29600:00:0001:39:3001:46:2703:11:4403:11:53.2503:11:53.25+01:37:1212:474.7
313ALFREDSSON Tobias 1942M 40-4432M 29700:00:0101:47:1501:54:0503:12:2503:12:30.0503:12:32.00+01:37:5012:504.7
314DEERY Craig 2219M 45-4913M 29800:00:0001:19:3801:25:5503:12:3003:12:37.9003:12:37.90+01:37:5612:504.7
315POŚPIECH Krzysztof Pawlak 1296M 25-2961M 29900:00:0201:48:0801:54:3303:13:0203:13:10.9503:13:13.05+01:38:3112:524.7
316DENTALE Armando 1379M 25-2962M 30000:00:0203:13:2803:13:33.5503:13:35.80+01:38:5412:544.6
317WOJAS Jakub 2378M Journeyman11M 30100:00:0202:00:1602:08:5103:13:3803:13:45.7003:13:48.15+01:39:0612:554.6
318ŚWIĄDER Andrzej 1813M 40-4433M 30200:00:0201:53:0402:00:2703:13:5003:13:56.2003:13:59.10+01:39:1712:554.6
319GUZ Grzegorz 1916M 40-4434M 30300:00:0101:47:2401:53:4403:15:1203:15:22.2003:15:24.05+01:40:4213:014.6
320OLSEN Mads-Christian Brill 1516M 30-3464M 30400:00:0001:32:5401:40:2103:16:1803:16:24.7503:16:24.75+01:41:4313:054.6
321PETERKA Tomáš 1368M 25-2963M 30500:00:0201:37:4301:44:4303:16:3203:16:39.5503:16:41.80+01:42:0013:064.6
322HANSSON Rickard 1947M 40-4435M 30600:00:0202:03:3702:11:4703:18:1303:18:16.2003:18:18.80+01:43:3713:134.5
323RUMMEL Rune 1781M 35-3929M 30700:00:0201:50:0501:56:2703:18:4803:18:54.1003:18:56.45+01:44:1513:154.5
324MICHEL Jérémy 1074M Elite55M 30800:00:0101:16:5201:23:0503:18:5103:18:55.3003:18:56.75+01:44:1513:154.5
325IBBOTSON Ryan 1658M 35-3930M 30900:00:0101:28:5701:35:1503:19:1203:19:19.4503:19:20.65+01:44:3913:174.5
326BUGAJ Mariusz 1552M 30-3465M 31000:00:0001:48:3901:55:5103:19:2103:19:26.6003:19:26.60+01:44:4513:174.5
327ZIMMER Markus 1540M 30-3466M 31100:00:0001:53:0002:01:0603:19:2703:19:34.1003:19:34.10+01:44:5213:184.5
328LUNDBERG Sara 2106W 30-341K 1700:00:0201:52:2202:00:4103:19:3303:19:38.9003:19:41.20+01:44:5913:184.5
329SLUIS Richard 1637M 35-3931M 31200:00:0201:49:4301:57:2703:19:3603:19:43.6503:19:45.90+01:45:0413:184.5
330MOLLOY Paul 1728M 35-3932M 31300:00:0201:40:1301:46:3703:19:4703:19:56.3003:19:58.35+01:45:1713:194.5
331REDDAWAY Milo 2367M Journeyman12M 31400:00:0002:01:4502:12:3503:19:5203:20:03.5503:20:03.55+01:45:2213:204.5
332KEANE Josh 1278M 25-2964M 31500:00:0201:26:3401:34:0803:20:2103:20:26.8503:20:28.95+01:45:4713:214.5
333PIOMBONI Nicolò 1474M 30-3467M 31600:00:0001:21:5201:27:4303:20:2803:20:34.8003:20:34.80+01:45:5313:224.5
334KORBAL Ewelina 2427W Journeyman1K 1800:00:0102:01:2802:12:1403:21:2903:21:38.6003:21:40.10+01:46:5813:264.5
335MYKOLA Fomishkin 1411M 30-3468M 31700:00:0001:21:3401:27:5103:21:4603:21:53.0503:21:53.05+01:47:1113:274.5
336MANTYCKI Rafał 1329M 25-2965M 31800:00:0101:36:1801:43:0803:21:4703:21:51.4503:21:53.40+01:47:1213:274.5
337ANDRESEN Petter 2294M 50-545M 31900:00:0101:42:5901:51:0203:22:45.8503:22:47.30+01:48:0613:314.4
338LEARY Tony 2295M 50-546M 32000:00:0001:27:0201:33:5403:22:3903:22:47.4503:22:47.50+01:48:0613:314.4
339TROKHYMETS Oleksandr 2403M Journeyman13M 32100:00:0102:03:3202:11:1203:22:4803:23:10.6003:23:12.00+01:48:3013:324.4
340SCHUTTEN Rutger 1599M 30-3469M 32200:00:0301:43:0501:49:0403:23:0603:23:11.1503:23:14.30+01:48:3313:324.4
341ANATOLI Kamyshkailo 1751M 35-3933M 32300:00:0101:38:0101:44:2903:23:4103:23:44.9503:23:46.60+01:49:0513:354.4
342TOMASZ Tolak 1739M 35-3934M 32400:00:0201:49:2301:59:5003:23:5803:24:07.5003:24:09.70+01:49:2813:364.4
343JONSSON Nils 1595M 30-3470M 32500:00:0201:20:4101:26:0403:24:2303:24:28.9503:24:31.40+01:49:5013:374.4
344KONARSKI Tomasz 1716M 35-3935M 32600:00:0201:46:4401:53:4303:24:3203:24:38.0003:24:40.05+01:49:5813:384.4
345ELENA Ladnaya 2152W 35-391K 1900:00:0101:53:0302:01:1203:24:3903:24:44.1503:24:45.25+01:50:0413:384.4
346ZHVIKOV Oleg 1321M 25-2966M 32700:00:0202:06:2802:14:1603:25:0603:25:11.2003:25:13.55+01:50:3213:404.4
347PARKHOMCHUK Svitlana 2016W 25-293K 2000:00:0101:38:0901:46:5203:25:1003:25:14.8503:25:16.40+01:50:3513:414.4
348ORKE Einar 1425M 30-3471M 32800:00:0001:28:2001:34:4603:25:4503:25:53.0503:25:53.05+01:51:1113:434.4
349MALUENDA Juan 2281M 50-547M 32900:00:0001:50:2402:01:3503:26:4703:26:52.6503:26:52.65+01:52:1113:474.4
350DEDIEU Semi 1600M 30-3472M 33000:00:0101:54:2702:02:1003:26:4603:26:57.4003:26:58.90+01:52:1713:474.3
351LOPES Paulo Alexandre Costa 1823M 40-4436M 33100:00:0101:39:0601:45:2103:26:5803:27:04.9003:27:06.60+01:52:2513:484.3
352BLAZQUEZ Ivan Hernandez 2380M Journeyman14M 33200:00:0201:59:3402:09:0703:27:1203:27:25.4503:27:28.15+01:52:4613:494.3
353LOMNICKÁ Tereza 2009W 18-242K 2100:00:0202:03:3302:14:1103:27:2703:27:31.4003:27:34.25+01:52:5313:504.3
354ONOFRIENKO Karina 1988W 18-243K 2200:00:0201:28:4701:36:0103:27:3303:27:36.8503:27:39.45+01:52:5813:504.3
355FLEISCHHAUER Felix 1312M 25-2967M 33300:00:0201:35:3601:42:5503:27:3103:27:37.9003:27:40.20+01:52:5813:504.3
356MIKLÓS Fábián 1623M 35-3936M 33400:00:0401:39:2101:46:5703:28:0503:28:09.9503:28:14.15+01:53:3213:524.3
357HERNANDEZ Eric Seres 1527M 30-3473M 33500:00:0001:43:4201:49:5103:28:1603:28:21.9003:28:21.90+01:53:4013:534.3
358WAKTER Jacob 1385M 25-2968M 33600:00:0301:34:0401:42:1003:28:1603:28:20.2503:28:23.40+01:53:4213:534.3
359PORTON David 1736M 35-3937M 33700:00:0202:08:4402:15:2203:28:1803:28:27.2003:28:29.25+01:53:4813:534.3
360WIELECHOWSKA Natalia 1096W Elite11K 2300:00:0201:44:4801:52:1303:29:2103:29:27.0003:29:29.35+01:54:4813:574.3
361MIKHINA Anastasia 1108W Elite12K 2400:00:0001:22:0101:28:5003:29:5403:29:58.3503:29:58.35+01:55:1713:594.3
362KERSTEN Max 1153M 18-2429M 33800:00:0201:23:4501:31:0003:29:5203:29:56.8003:29:59.30+01:55:1813:594.3
363HRABÁK Petr 1561M 30-3474M 33900:00:0001:34:0301:40:0403:30:2503:30:29.0003:30:29.00+01:55:4714:014.3
364LARSEN Glen 1562M 30-3475M 34000:00:0001:27:1701:34:2803:30:3303:30:38.7503:30:38.75+01:55:5714:024.3
365ZIMOŃ Norbert 1604M 30-3476M 34100:00:0001:50:3901:58:3403:30:3503:30:41.3503:30:41.35+01:56:0014:024.3
366PROKOPENKO Vadim 1416M 30-3477M 34200:00:0001:27:5801:34:0903:31:0103:31:07.3503:31:07.35+01:56:2614:044.3
367DEMONTY Nicolas 1161M 18-2430M 34300:00:0101:16:4301:23:2603:31:3903:31:45.6003:31:47.30+01:57:0614:074.2
368KREBS Marcel 2360M Journeyman15M 34400:00:0302:07:0102:16:2603:31:3703:31:46.3003:31:49.75+01:57:0814:074.2
369SAAL Patrick 2364M Journeyman16M 34500:00:0302:07:0102:16:2603:31:3703:31:46.7503:31:50.00+01:57:0814:074.2
370OPIAŁ Grzegorz 1615M 30-3478M 34600:00:0101:26:0501:30:5603:31:5103:31:56.6503:31:58.40+01:57:1714:074.2
371SHTYPULIAK Sergii 2375M Journeyman17M 34700:00:0202:08:3002:15:2203:32:0003:32:10.0003:32:12.30+01:57:3114:084.2
372VALERII Kaldin 1536M 30-3479M 34800:00:0001:45:3601:53:4203:32:1003:32:16.7003:32:16.70+01:57:3514:094.2
373WINTERS Arjan 1619M 35-3938M 34900:00:0201:35:3001:40:5603:32:2703:32:30.0003:32:32.80+01:57:5114:104.2
374DUBROVIN Valentin 1436M 30-3480M 35000:00:0001:41:0401:48:3203:32:3003:32:39.8003:32:39.80+01:57:5814:104.2
375VERBEERST Tommy 1470M 30-3481M 35100:00:0001:58:4002:06:1503:33:0803:33:12.3503:33:12.35+01:58:3114:124.2
376ELSGART Niklas 1352M 25-2969M 35200:00:0101:40:0101:47:0303:33:1603:33:20.1003:33:21.80+01:58:4014:134.2
377KUMOROWSKI Rafał 1754M 35-3939M 35300:00:0202:00:3302:08:3203:33:5303:34:04.1003:34:06.65+01:59:2514:164.2
378PERSSON Robert 2221M 45-4914M 35400:00:0001:26:4201:34:1403:34:0203:34:07.7003:34:07.70+01:59:2614:164.2
379JØRGENSEN Michael 2358M Journeyman18M 35500:00:0202:12:1502:20:2003:34:1903:34:26.0003:34:28.95+01:59:4714:174.2
380BELLODI Andrea 1547M 30-3482M 35600:00:0001:41:3801:47:3003:34:3103:34:36.1003:34:36.10+01:59:5414:184.2
381MAKAROV Andrei 1246M 25-2970M 35700:00:0201:41:5401:49:2603:34:3203:34:36.4503:34:38.90+01:59:5714:184.2
382DRÁBEK Lukáš 1147M 18-2431M 35800:00:0201:20:1001:26:2503:34:3603:34:42.8003:34:45.05+02:00:0314:184.2
383CASTILLO Aythami Castilla Del 1598M 30-3483M 35900:00:0301:59:1002:07:5703:34:5303:35:00.8503:35:04.30+02:00:2314:204.2
384KUBER Andrzej 1569M 30-3484M 36000:00:0001:45:3901:52:1103:35:5403:35:58.7003:35:58.70+02:01:1714:234.2
385MARINA Lopatina 2047W 25-294K 2500:00:0202:06:5602:15:0803:36:3703:36:41.9003:36:44.30+02:02:0314:264.2
386ŁUCZAK Łukasz 1525M 30-3485M 36100:00:0001:57:4502:05:0903:37:1403:37:19.1003:37:19.10+02:02:3714:294.1
387GALLI Dario 1892M 40-4437M 36200:00:0302:11:1902:18:5803:37:4703:37:55.5503:37:59.00+02:03:1714:314.1
388LYNG Rasmus 2353M Journeyman19M 36300:00:0202:12:1402:18:2403:38:32.9003:38:35.00+02:03:5314:344.1
389SCHWEIGERT Matthias 1377M 25-2971M 36400:00:0201:28:4801:35:4003:38:3703:38:40.2503:38:42.70+02:04:0114:344.1
390RENIRIE Ingmar 2393M Journeyman20M 36500:00:0202:22:2502:31:3103:39:0603:39:12.9003:39:15.30+02:04:3414:364.1
391BROOKSON Mervyn 2415M Journeyman21M 36600:00:0202:21:1502:28:1303:40:5703:41:05.1003:41:07.20+02:06:2514:444.1
392CHRISTIANSEN Allan 2366M Journeyman22M 36700:00:0201:46:4401:54:0603:41:09.4503:41:11.90+02:06:3014:444.1
393FIGUEIREDO Rui Pedro Cruz 1302M 25-2972M 36800:00:0102:04:4302:13:2703:40:4503:41:12.8003:41:14.75+02:06:3314:444.1
394NAJDEREK Michał 2395M Journeyman23M 36900:00:0102:14:2202:20:2403:41:2403:41:32.1003:41:33.45+02:06:5214:464.1
395LUDVIGSSON Antonio 2371M Journeyman24M 37000:00:0202:06:4102:15:1103:41:5003:41:58.0503:42:01.00+02:07:1914:474.1
396NORDH Stefan 2383M Journeyman25M 37100:00:0302:06:3902:15:1103:41:4903:41:57.8503:42:01.15+02:07:1914:474.1
397LINDSTRÖM Algot 2374M Journeyman26M 37200:00:0202:06:3702:14:3703:41:5103:41:58.3503:42:01.20+02:07:1914:474.1
398BRITO Mateo Fernandes 1644M 35-3940M 37300:00:0201:35:2101:41:1203:42:0203:42:07.6003:42:09.65+02:07:2814:484.1
399WAWRZYNIAK Slawo 2401M Journeyman27M 37400:00:0102:01:3202:10:2703:41:5803:42:09.8003:42:10.80+02:07:2914:484.1
400D'ODÉMONT Grégoire 1757M 35-3941M 37500:00:0201:56:2402:05:2703:41:5803:42:19.4003:42:21.85+02:07:4014:494
401NIELSEN Daniel Birk 1548M 30-3486M 37600:00:0001:40:5601:48:3203:42:2703:42:32.9003:42:32.90+02:07:5114:504
402HOŁOWACZ Kamil 2396M Journeyman28M 37700:00:0102:16:3302:25:4703:42:3503:42:45.1503:42:46.60+02:08:0514:514
403CHRZĄSTEK Maciek 2397M Journeyman29M 37800:00:0002:17:5702:25:5403:43:0703:43:13.7003:43:14.55+02:08:3314:524
404PAPPERMANN Jens 1672M 35-3942M 37900:00:0101:45:3401:53:2303:43:2503:43:29.5003:43:30.50+02:08:4914:534
405SMOROŃ Marcin 2370M Journeyman30M 38000:00:0302:22:5302:31:1203:43:4003:43:49.3503:43:53.05+02:09:1114:554
406ROETS Elio 1778M 35-3943M 38100:00:0202:18:2402:26:1403:43:4903:43:55.7003:43:58.40+02:09:1714:554
407CAJDERT Johan 1636M 35-3944M 38200:00:0301:55:4702:04:5603:44:2003:44:33.2003:44:36.35+02:09:5514:584
408FARINELLA Riccardo 2391M Journeyman31M 38300:00:0203:44:4103:44:48.8003:44:51.60+02:10:1014:594
409BENITEZ Estefania Del Pino Ramos 2430W Journeyman2K 2600:00:0102:06:5002:14:2803:45:1603:45:23.3003:45:24.60+02:10:4315:014
410ALEXEEV Alexey 2400M Journeyman32M 38400:00:0102:25:0402:31:2903:45:3103:45:38.2503:45:39.65+02:10:5815:024
411DAELEWYN Koen 1885M 40-4438M 38500:00:0202:00:1302:07:1603:46:3703:46:58.9503:47:01.00+02:12:1915:074
412VOSSLER Martin 1688M 35-3945M 38600:00:0102:18:3102:25:3903:46:5703:47:04.6003:47:06.40+02:12:2515:084
413PARET Arnault 2238M 45-4915M 38700:00:0001:44:5201:52:2603:47:1303:47:20.5503:47:20.55+02:12:3915:094
414TOLAK Michał 1689M 35-3946M 38800:00:0101:42:2801:50:1203:46:5803:47:21.3003:47:23.00+02:12:4115:094
415STRANDBERG Petra 2440W Journeyman3K 2700:00:0202:25:4602:35:0203:47:1703:47:25.2003:47:27.65+02:12:4615:094
416BABUŠKOVÁ Stanislava 2171W 40-443K 2800:00:0101:20:5801:28:2303:47:2503:47:30.7003:47:31.85+02:12:5015:104
417MADSEN Ditlev 1166M 18-2432M 38900:00:0201:21:5401:27:0203:47:3403:47:39.6503:47:42.35+02:13:0115:104
418KAUFMANN Nikolaj 1920M 40-4439M 39000:00:0102:02:4702:10:1203:48:1803:48:23.9003:48:25.50+02:13:4415:133.9
419ANASTASIA Papadogianni 2431W Journeyman4K 2900:00:0102:23:3502:30:4203:48:5203:49:01.0503:49:02.50+02:14:2115:163.9
420ANTSI Siarhei 2361M Journeyman33M 39100:00:0202:30:0702:37:3603:50:3103:50:38.2003:50:40.60+02:15:5915:223.9
421BENTO Toni 1845M 40-4440M 39200:00:0101:36:1101:41:4603:50:4403:50:52.4503:50:54.05+02:16:1215:233.9
422ZANONI Matteo 1580M 30-3487M 39300:00:0002:02:1502:10:5103:51:4203:51:50.9503:51:50.95+02:17:0915:273.9
423PIRNER Christian 1935M 40-4441M 39400:00:0201:59:2702:05:5103:51:5403:52:00.0503:52:02.50+02:17:2115:283.9
424BERGLIND Thobias Olsson 2228M 45-4916M 39500:00:0001:38:1601:45:4503:52:2803:52:35.6003:52:35.60+02:17:5415:303.9
425JOHN Minakakis 2376M Journeyman34M 39600:00:0202:22:1002:29:5103:52:3003:52:39.5503:52:42.30+02:18:0115:303.9
426SANTANA Aday Luis Garcia 1026M Elite56M 39700:00:0101:19:1501:25:4403:52:4403:52:54.9003:52:56.40+02:18:1515:313.9
427BANDURKA Viktor 1866M 40-4442M 39800:00:0101:48:5501:55:2803:53:0803:53:14.6503:53:16.60+02:18:3515:333.9
428PEHTSERAVA Tatsiana 2077W 30-342K 3000:00:0101:27:4901:34:5103:54:5403:55:00.6503:55:02.35+02:20:2115:403.8
429KIND Pia 2173W 40-444K 3100:00:0101:49:1801:56:4103:55:5903:56:04.9003:56:06.60+02:21:2515:443.8
430LOPE Jesús Prieto De 1085M Elite57M 39900:00:0101:48:5901:54:5603:56:0203:56:07.2003:56:08.85+02:21:2715:443.8
431HORÁK Jaromír 1362M 25-2973M 40000:00:0201:47:3901:55:5103:56:3403:56:38.3503:56:40.55+02:21:5915:463.8
432REMMER Thomas 1545M 30-3488M 40100:00:0001:39:2901:44:3903:57:5803:58:03.3503:58:03.35+02:23:2215:523.8
433TAKÁČ Vladimír 1848M 40-4443M 40200:00:0302:14:2102:20:2003:59:1003:59:16.6003:59:19.70+02:24:3815:573.8
434GERTSEN Carsten 1803M 40-4444M 40300:00:0201:51:3501:58:0103:59:2803:59:34.7003:59:36.85+02:24:5515:583.8
435BONESI Samuel 1787M 35-3947M 40400:00:0101:43:1301:50:2903:59:3203:59:49.8503:59:51.45+02:25:1015:593.8
436GALLE Ruben 2392M Journeyman35M 40500:00:0102:22:2302:31:0703:59:4903:59:57.2503:59:58.40+02:25:1715:593.8
437MORIES Arturo Saez 2381M Journeyman36M 40600:00:0302:21:4902:29:0604:00:1504:00:22.5004:00:25.60+02:25:4416:013.7
438SANZ Pablo López 2385M Journeyman37M 40700:00:0202:21:5002:29:3304:00:1604:00:23.3004:00:25.85+02:25:4416:013.7
439URBANO David Quintana 1533M 30-3489M 40800:00:0001:52:4502:00:1304:00:1404:00:26.2004:00:26.20+02:25:4416:013.7
440SEBASTIAN Juan Pedro Murga San 2379M Journeyman38M 40900:00:0204:00:1604:00:25.8504:00:28.50+02:25:4716:013.7
441RASSKAZOV Dmitriy 1926M 40-4445M 41000:00:0102:28:2402:36:3704:00:4604:00:51.2004:00:52.25+02:26:1116:033.7
442HÖGSTRÖM Andreas 1746M 35-3948M 41100:00:0302:03:4102:11:5404:00:5504:01:02.2504:01:06.00+02:26:2416:043.7
443ZAPPA Stefano 1539M 30-3490M 41200:00:0002:04:3202:11:2704:01:3704:01:43.3004:01:43.30+02:27:0216:063.7
444ANDERSEN Steen 2355M Journeyman39M 41300:00:0202:05:5202:14:0604:01:40.9504:01:43.80+02:27:0216:063.7
445LOZANO Miguel Ángel Charro 2205M 45-4917M 41400:00:0101:41:4001:48:5504:01:5804:02:04.3504:02:06.00+02:27:2416:083.7
446ПАЛАНЦЕВИЧ Яна 2055W 25-295K 3200:00:0201:47:3901:56:2404:02:2104:02:25.2004:02:27.20+02:27:4516:093.7
447CHŁĄD Aleksander 1798M 35-3949M 41500:00:0101:52:3702:00:4004:02:2604:02:29.9004:02:31.80+02:27:5016:103.7
448KOCZOROWSKI Pawel 2363M Journeyman40M 41600:00:0201:44:3601:52:2204:02:2504:02:31.5004:02:34.30+02:27:5316:103.7
449LEERBAEK Mads 1965M 13-177M 41700:00:0101:50:5201:58:1504:03:0304:03:07.3004:03:08.85+02:28:2716:123.7
450AMBROSE Paul 2359M Journeyman41M 41800:00:0302:22:2302:32:0704:03:0004:03:08.2504:03:11.35+02:28:3016:123.7
451TURJANYI Janos 1889M 40-4446M 41900:00:0301:59:3602:07:0704:03:3104:03:36.2004:03:40.10+02:28:5816:143.7
452TRUJILLO Fernando Pajuelo 1287M 25-2974M 42000:00:0102:04:0002:12:2804:04:3404:04:43.0004:04:44.55+02:30:0316:183.7
453EMMERUD Kai Roger 2405M Journeyman42M 42100:00:0001:59:5602:08:3204:05:2704:05:34.1004:05:34.10+02:30:5216:223.7
454PODGORSKI Marek 1679M 35-3950M 42200:00:0101:33:1101:40:4504:05:5804:06:04.4004:06:06.00+02:31:2416:243.7
455LIND Magnus 2315M 55+1M 42300:00:0001:50:1501:58:5604:06:2204:06:32.2504:06:33.10+02:31:5116:263.7
456JESKA Tomasz 1948M 40-4447M 42400:00:0102:11:2002:18:4804:06:5604:07:02.9004:07:04.70+02:32:2316:283.6
457TREZISE Thomas 2388M Journeyman43M 42500:00:0101:51:3801:58:5504:09:1604:09:20.4004:09:21.70+02:34:4016:373.6
458PEDRIANES Samuel Hernández 1048M Elite58M 42600:00:0101:17:4201:24:1204:10:2804:10:37.3504:10:38.85+02:35:5716:423.6
459AINSWORTH Cara 2437W Journeyman5K 3300:00:0102:28:3202:40:2604:10:3604:10:45.3504:10:47.10+02:36:0516:433.6
460VAVŘIČKA Stanislav 2411M Journeyman44M 42700:00:0102:36:0502:43:0804:11:04.3004:11:05.60+02:36:2416:443.6
461JOHANSSON Irma 2329W 13-172K 3400:00:0101:46:5301:53:4304:11:0904:11:14.4004:11:16.35+02:36:3516:453.6
462BERGSTRÖM Robert 1915M 40-4448M 42800:00:0202:15:0302:22:1804:12:5904:13:04.3504:13:07.20+02:38:2516:523.6
463BLEYS Pascal 2274M 50-548M 42900:00:0001:58:0902:05:5804:13:26.9504:13:27.00+02:38:4516:533.6
464LORENZO Alberto Lopez 1913M 40-4449M 43000:00:0202:00:5402:08:0604:13:2104:13:26.9004:13:29.30+02:38:4816:533.6
465CARRASCO Manuel 1677M 35-3951M 43100:00:0101:51:0401:57:4504:13:3004:13:38.7004:13:39.75+02:38:5816:543.5
466KARLSSON Line 2425W Journeyman6K 3500:00:0202:33:2902:40:1204:14:0804:14:16.4004:14:18.95+02:39:3716:573.5
467DITLEV Ditte Bruun 2429W Journeyman7K 3600:00:0302:33:2802:40:5004:14:0704:14:16.0004:14:19.10+02:39:3716:573.5
468YANIN Denis 1651M 35-3952M 43200:00:0201:46:3601:53:1704:14:4004:14:46.6504:14:49.15+02:40:0716:593.5
469PELUSI Jacopo 1381M 25-2975M 43300:00:0201:56:1602:04:1704:15:0604:15:13.6004:15:16.55+02:40:3517:003.5
470WALNESTEDT Malin 1995W 18-244K 3700:00:0202:25:0802:32:3304:15:2004:15:23.9504:15:26.50+02:40:4517:013.5
471HANSEN Jonas 1237M 25-2976M 43400:00:0201:41:0801:49:0104:15:3604:15:43.9504:15:46.80+02:41:0517:023.5
472LARSSON Madeleine 2123W 35-392K 3800:00:0001:25:4001:32:5004:15:3504:15:46.8004:15:47.60+02:41:0617:033.5
473TEUNISSEN Donar 2198M 45-4918M 43500:00:0201:32:2701:39:2504:15:5804:16:06.6004:16:08.60+02:41:2717:043.5
474JANISZEWSKI Grzegorz 2284M 50-549M 43600:00:0001:53:1402:01:4004:16:0604:16:11.2004:16:11.20+02:41:2917:043.5
475LUND Maria 1989W 18-245K 3900:00:0101:22:4901:29:4804:16:4304:16:48.0004:16:49.50+02:42:0817:073.5
476DEVILLIER Gérard 2282M 50-5410M 43700:00:0102:04:5802:12:0904:16:4404:16:50.4504:16:51.90+02:42:1017:073.5
477TRALDI Davide 1184M 18-2433M 43800:00:0201:22:5801:29:4804:17:4504:17:52.3004:17:54.40+02:43:1317:113.5
478ALEXEY Davydov 2389M Journeyman45M 43900:00:0102:47:0402:54:0404:18:3704:18:45.6004:18:46.90+02:44:0517:153.5
479PIZZO Sebastiano Antonio 2421M Journeyman46M 44000:00:0102:47:5602:55:2304:19:3404:19:42.3504:19:43.80+02:45:0217:183.5
480BURANI Cristian 1369M 25-2977M 44100:00:0101:52:4602:00:5704:19:5304:20:00.2004:20:01.85+02:45:2017:203.5
481LIBERADZKI Marcin 2417M Journeyman47M 44200:00:0203:07:2703:14:2204:20:5804:21:07.9504:21:10.45+02:46:2917:243.4
482DYSZKIEWICZ Grzegorz 1553M 30-3491M 44300:00:0002:15:2302:23:4804:21:5304:21:59.5504:21:59.55+02:47:1817:273.4
483VOROBOK Lukáš 1241M 25-2978M 44400:00:0201:25:4801:31:4004:22:4604:22:50.6004:22:52.90+02:48:1117:313.4
484SMITH Lorraine 2426W Journeyman8K 4000:00:0102:35:0702:46:4404:22:4504:22:52.7504:22:54.55+02:48:1317:313.4
485ZIOBRO Chris 2402M Journeyman48M 44500:00:0302:43:2002:50:0204:23:1604:23:28.7004:23:31.90+02:48:5017:333.4
486KACPERSKI Jacek 2408M Journeyman49M 44600:00:0102:59:3303:06:3604:24:4004:24:46.9504:24:48.90+02:50:0717:393.4
487ULDYNOWICZ Bartosz 1584M 30-3492M 44700:00:0101:50:5001:58:3204:25:0904:25:12.2504:25:14.00+02:50:3217:403.4
488GRABARCZYK Wojciech 1930M 40-4450M 44800:00:0101:59:1402:05:2604:28:2004:28:29.4004:28:30.65+02:53:4917:533.4
489WIŚNIEWSKI Norbert 1914M 40-4451M 44900:00:0202:04:0302:12:5904:29:3904:29:46.0004:29:48.15+02:55:0617:593.3
490LUCIDI Giuliano 1090M Elite59M 45000:00:0201:20:2601:27:2104:28:1004:30:07.6504:30:09.70+02:55:2818:003.3
491POCATERRA Simone 1196M 18-2434M 45100:07:0101:21:4001:28:4404:23:0404:23:12.8004:30:14.60+02:55:3317:323.4
492BRUNO Manca 2302M 50-5411M 45200:00:0001:46:3301:55:0204:30:3004:30:36.4504:30:36.45+02:55:5518:023.3
493MILBRANT Michał 2399M Journeyman50M 45300:00:0103:09:5303:20:3304:31:0204:31:13.3004:31:14.35+02:56:3318:043.3
494GODFREY Stanley 2394M Journeyman51M 45400:00:0202:38:4702:50:2504:33:3004:33:39.4004:33:41.55+02:59:0018:143.3
495DOUBEK Milan 1431M 30-3493M 45500:00:0003:06:3903:14:1804:33:4704:34:10.5004:34:10.50+02:59:2918:163.3
496VELDE Julie Van De 2436W Journeyman9K 4100:00:0203:06:0303:14:5904:34:0104:34:14.0004:34:16.15+02:59:3418:163.3
497GREPPI Niclas 1833M 40-4452M 45600:00:0301:42:3801:50:2604:34:1104:34:17.0004:34:20.60+02:59:3918:173.3
498SOTO Hugo Ampudia 1773M 35-3953M 45700:00:0201:57:3902:05:4504:36:0804:36:13.6504:36:15.70+03:01:3418:243.3
499MIODEK Adrian 1665M 35-3954M 45800:00:0001:41:1301:48:5704:36:2404:36:31.5004:36:31.50+03:01:5018:263.3
500BRÄHMIG Mattes 1458M 30-3494M 45900:00:0001:34:3001:41:1704:36:3704:36:41.9004:36:41.90+03:02:0018:263.3
501DIETRICH Raphaël 1371M 25-2979M 46000:00:0101:38:2401:45:1504:37:2904:37:37.5004:37:39.35+03:02:5818:303.2
502KOLAŘÍK Lukáš 2414M Journeyman52M 46100:00:0103:11:0503:18:2404:38:4004:38:48.4504:38:50.30+03:04:0918:353.2
503PYDZINSKI Tomasz 1922M 40-4453M 46200:00:0102:03:0902:10:1404:38:4804:38:56.3004:38:57.50+03:04:1618:353.2
504MARTÍNEZ Fernando Giménez 1790M 35-3955M 46300:00:0201:57:2602:05:4804:39:2904:39:39.2504:39:41.90+03:05:0018:383.2
505SKRATAAS Helle 2110W 30-343K 4200:00:0202:05:3202:13:1304:40:0904:40:12.5004:40:15.00+03:05:3318:403.2
506VERLAAT Kees 1388M 25-2980M 46400:00:0101:26:2101:33:3404:40:4804:40:53.1004:40:54.65+03:06:1318:433.2
507PARAMONOVA Irina 2133W 35-393K 4300:00:0101:47:4001:55:4704:41:0304:41:08.8004:41:10.50+03:06:2918:443.2
508BELT Rico Van Den 1748M 35-3956M 46500:00:0001:38:2301:46:0304:42:2904:42:38.6504:42:38.65+03:07:5718:503.2
509JANUS Leszek 1758M 35-3957M 46600:00:0102:14:1702:20:5404:42:5604:42:59.6004:43:01.45+03:08:2018:523.2
510D'ANDREA Giovanni 1857M 40-4454M 46700:00:0002:18:0604:44:46.8004:44:46.80+03:10:0518:593.2
511SÉBASTIEN Galdeano 1502M 30-3495M 46800:00:0001:50:5001:58:5604:46:2204:46:27.7004:46:27.70+03:11:4619:053.1
512SUCHNA David 1563M 30-3496M 46900:00:0001:53:4902:01:2504:46:4204:46:49.6004:46:49.60+03:12:0819:073.1
513ZIELIŃSKI Bartosz 1350M 25-2981M 47000:00:0201:59:1902:07:4004:49:3404:49:41.3504:49:43.75+03:15:0219:183.1
514VARAKSA Siarhei 2362M Journeyman53M 47100:00:0202:27:5402:36:4904:50:2804:50:34.4004:50:37.20+03:15:5519:223.1
515GARCIA Manuel Caamaño 1643M 35-3958M 47200:00:0102:09:4002:17:4704:51:4304:51:50.8504:51:52.70+03:17:1119:273.1
516RANDRUP-THOMSEN Rune 2373M Journeyman54M 47300:00:0302:27:0902:34:5004:53:2504:53:32.9004:53:36.20+03:18:5419:343.1
517YVES Pugliari 2199M 45-4919M 47400:00:0102:01:2302:09:3504:53:4904:53:56.6504:53:58.10+03:19:1619:353.1
518ALEKSANDR Anokhin 1614M 30-3497M 47500:00:0202:18:4702:25:4704:52:5504:55:06.4504:55:08.90+03:20:2719:403
519DERMER Johanna 2125W 35-394K 4400:00:0101:47:1601:54:5504:55:5104:55:58.8504:56:00.75+03:21:1919:433
520NORDAHL Tobias 2407M Journeyman55M 47600:00:0202:56:2503:03:3604:57:0404:57:16.0504:57:18.85+03:22:3719:493
521STEC Jakub 1582M 30-3498M 47700:00:0201:44:5101:52:4604:57:2004:57:28.8004:57:31.00+03:22:4919:493
522ALONSO Jose Bruno 1607M 30-3499M 47800:00:0201:54:5802:02:5504:58:3804:58:44.1504:58:46.20+03:24:0419:543
523GOLUBEVA Svetlana 2138W 35-395K 4500:00:0103:36:2003:45:2904:58:3704:58:45.5504:58:47.05+03:24:0519:553
524YANINA Elena 2130W 35-396K 4600:00:0101:51:3401:59:0304:59:1704:59:21.0004:59:22.60+03:24:4119:573
525RAMOS Kevin Do Coito 2372M Journeyman56M 47900:00:0202:22:5302:30:0204:59:3404:59:45.8504:59:48.20+03:25:0619:593
526FOLGADO João 2369M Journeyman57M 48000:00:0002:27:2102:36:4204:59:3804:59:49.4004:59:49.40+03:25:0819:593
527CIARDELLI Dario 1785M 35-3959M 48100:00:0201:42:0601:48:1005:00:4605:01:06.0005:01:08.10+03:26:2620:043
528SCHELLHAAS Sven 2413M Journeyman58M 48200:00:0203:10:2203:20:1105:00:5305:01:10.8505:01:13.00+03:26:3120:043
529GUMPRECHT Hannes 2420M Journeyman59M 48300:00:0203:10:2203:20:1205:00:5305:01:10.8005:01:13.10+03:26:3120:043
530BROCK Kelly 2435W Journeyman10K 4700:00:0103:04:5803:17:0505:01:0605:01:15.4005:01:16.90+03:26:3520:053
531JOKSTAD Anette Heimli 1124W Elite13K 4800:00:0201:21:3001:28:0905:02:1105:02:15.7505:02:18.10+03:27:3620:093
532MANGANO Valentina 2432W Journeyman11K 4900:00:0102:33:4602:42:1105:02:1505:02:24.4505:02:25.80+03:27:4420:093
533VANBERSY Morgane 2439W Journeyman12K 5000:00:0202:34:5802:43:4705:04:3605:04:46.8505:04:48.90+03:30:0720:193
534SPRAWKA Marta 1138W Elite14K 5100:30:0102:43:3502:51:1904:36:3404:36:41.5505:06:43.50+03:32:0218:263.3
535RODRIGUEZ Yessica Izquierdo 2434W Journeyman13K 5200:00:0202:15:1502:25:4005:06:2605:06:45.9505:06:47.95+03:32:0620:272.9
536NICOLAS Jean-Philippe 1801M 35-3960M 48400:00:0201:37:2601:45:0605:07:1805:07:25.9505:07:28.00+03:32:4620:292.9
537EMMANUEL Roszak 2292M 50-5412M 48500:00:0102:08:2902:16:0105:07:3805:07:45.7505:07:47.00+03:33:0520:312.9
538DZMITRY Gidlevski 1476M 30-34100M 48600:00:0001:57:4702:04:2305:08:0705:08:12.2005:08:12.20+03:33:3020:322.9
539MEIDENBAUER Joachim 1741M 35-3961M 48700:00:0201:58:4802:06:0405:10:0505:10:10.1505:10:13.10+03:35:3120:402.9
540LOVÉN Jonathan 1793M 35-3962M 48800:00:0302:05:3002:12:3505:11:4805:11:55.2005:11:58.35+03:37:1720:472.9
541NILSSON Oscar 2357M Journeyman60M 48900:00:0402:39:3202:50:0005:13:4905:13:59.2005:14:03.40+03:39:2220:552.9
542BRUINING Kirsten 2438W Journeyman14K 5300:00:0003:14:1203:23:4605:16:4505:16:54.5005:16:54.50+03:42:1321:072.8
543RIMONDI Alan 2377M Journeyman61M 49000:00:0302:48:4502:57:1205:17:1505:17:24.4005:17:27.85+03:42:4621:092.8
544GULLAUD Audric 2365M Journeyman62M 49100:00:0302:49:5802:58:4805:20:1105:20:25.9005:20:29.65+03:45:4821:212.8
545RAMAS Andrea Martínez 2433W Journeyman15K 5400:00:0203:42:3603:49:3205:21:5305:22:09.4505:22:11.60+03:47:3021:282.8
546JACIÓW Paweł 1389M 25-2982M 49200:00:0201:51:5601:59:4005:25:4105:25:49.4005:25:51.60+03:51:1021:432.8
Przekroczony limit czasu: 05:30:00
547DELSÖ Markus 1596M 30-34101M 49300:00:0302:05:5602:14:4905:30:3305:30:38.7505:30:41.90+03:56:0022:022.7
548JEŘÁBKOVÁ Petra 2080W 30-344K 5500:00:0202:08:2902:17:1405:31:31.4505:31:33.50+03:56:5222:062.7
549THONON Simon 1479M 30-34102M 49400:00:0002:16:4602:26:0605:32:3505:32:42.5005:32:42.50+03:58:0122:102.7
550JESSING Iben 2014W 25-296K 5600:00:0101:36:2201:43:5505:36:5505:37:00.2005:37:01.30+04:02:2022:282.7
551BOANDER Camilla 2021W 25-297K 5700:00:0202:13:3802:22:0005:37:4805:37:53.6505:37:55.80+04:03:1422:312.7
552ROBBRECHT Chris 1156M 18-2435M 49500:00:0201:36:5501:44:3905:39:1905:39:25.8505:39:28.35+04:04:4722:372.7
553CARDINALI Rebecca 2321W 13-173K 5800:00:0102:23:3302:30:4105:53:1305:53:36.9505:53:38.70+04:18:5723:342.5
554TULLOCH Jon 'abs' 1861M 40-4455M 49600:00:0202:13:4202:21:1406:07:4606:07:55.6006:07:58.30+04:33:1724:312.4
555MANNO Marco 1521M 30-34103M 49700:00:0002:07:1002:14:0606:09:0106:09:12.3506:09:12.35+04:34:3124:362.4
556SAS Merel 1983W 18-246K 5900:00:0202:26:4802:35:1706:11:0606:11:11.4006:11:13.40+04:36:3224:442.4
557HENNEKEN Claudia Maria 1113W Elite15K 6000:00:0302:04:1002:09:0606:34:0506:34:11.5506:34:14.65+04:59:3326:162.3
558PIANGIAMORE Ivano 1959M 40-4456M 49801:44:0001:32:3801:39:4004:55:0204:55:07.4006:39:08.10+05:04:2619:403
559WALNESTEDT Malin 2443W 18-247K 6102:09:0301:35:0101:41:0204:45:3504:45:48.5506:54:52.10+05:20:1019:033.1
560RODRIGUES Alexandre 1366M 25-2983M 49900:00:0102:42:3402:52:1307:00:57.4007:00:59.20+05:26:1728:032.1
561BEORLEGI Irati 1131W Elite16K 6200:00:0001:50:2702:00:0107:02:4607:02:52.7007:02:52.70+05:28:1128:112.1
562ADAMSON Ian 2445M Journeyman63M 50004:20:0501:44:4701:53:5303:06:0103:06:14.7507:26:19.90+05:51:3812:244.8
563POWAŻNY Marek 2444M Journeyman64M 50104:20:0302:36:3502:42:5104:16:0104:16:08.1508:36:11.60+07:01:3017:043.5
DQVEDERSØ Mik 1828M 40-44DQ01:44:16 DQ01:51:32 DQ03:08:00 DQ03:08:08.05 DQ DQ0:004.8
DQRADAMM Filip 1462M 30-34DQ01:48:37 DQ01:57:22 DQ03:16:06 DQ03:16:14.75 DQ DQ0:004.6
DQMIERZICKI Marcel 2404M JourneymanDQ02:22:29 DQ02:31:11 DQ03:47:05 DQ03:47:12.55 DQ DQ0:004
DNCPANIN Egor 1162M 18-2400:00:0200:44:50.5000:44:52.600:0020.1
DNCÁLVAREZ Rafita Fernández 1937M 40-4400:00:0100:58:53.9500:58:55.300:0015.3
DNCWÓJCIK Michał 1218M 18-2400:00:0101:23:35.0501:23:36.700:0010.8
DNCESPINOSA Joaquín Malo 1908M 40-4400:00:0001:29:4001:29:45.9001:29:46.700:0010
DNCBAIA Rafael 1768M 35-3900:00:0201:36:3801:36:47.8501:36:49.850:009.3
DNCKRITIKOS Vasilis 2290M 50-5400:00:0001:39:0801:39:25.0501:39:25.250:009.1
DNCKEREK Bernhard 1656M 35-3900:00:0101:43:5901:44:06.0001:44:07.500:008.6
DNCKRAWCZYK Tomasz 1009M Elite00:00:0101:02:1301:08:1801:47:0101:47:04.9001:47:06.700:008.4
DNCBARBE Lluis 1002M Elite00:00:0101:00:2801:05:5201:49:2801:49:34.2001:49:35.500:008.2
DNCVLADIMIR Larionov 2207M 45-4900:00:0101:54:1001:54:19.0501:54:20.550:007.9
DNCKASTSIUCHENKA Volha 2073W 30-3400:00:0101:56:37.7001:56:39.550:007.7
DNCBUGYS Renaldas 1434M 30-3400:00:0001:16:3001:22:2401:58:4401:58:50.3001:58:50.300:007.6
DNCSCHLAEPFER Tamara 2095W 30-3400:00:0301:58:5401:59:03.8501:59:07.400:007.6
DNCKOLB Lars 1457M 30-3400:00:0002:00:0102:00:08.5002:00:08.500:007.5
DNCTORNQVIST Oscar 1877M 40-4400:00:0402:01:0402:01:26.4502:01:30.600:007.4
DNCHORSCH Stefan 1469M 30-3400:00:0002:01:2902:01:41.2502:01:41.250:007.4
DNCCROESE Claire 2150W 35-3900:00:0002:03:4902:03:55.3002:03:56.200:007.3
DNCOLSEN Andreas Stahl 1016M Elite00:00:0101:02:0001:07:1102:08:4202:08:51.1502:08:52.700:007
DNCDALNICENCO Iuri 1066M Elite00:00:0101:14:4801:21:1402:12:1802:12:25.6002:12:27.350:006.8
DNCKJELL Jimmy 1025M Elite00:00:0101:13:3402:14:1502:14:22.7502:14:24.650:006.7
DNCZIMMERMANN Till 1240M 25-2900:00:0101:08:5901:15:0602:21:0602:21:30.8502:21:32.000:006.4
DNCLEVY Philippe 2309M 55+00:00:0102:22:0502:22:19.4502:22:20.900:006.3
DNCMAWLAM Jason 1459M 30-3400:00:0001:14:4501:21:1502:22:3002:22:35.6502:22:35.650:006.3
DNCFISCHER Oliver 1259M 25-2900:00:0201:35:3501:41:3002:23:13.1002:23:15.150:006.3
DNCBERGKULLA Robert Peter 2298M 50-5400:00:0001:29:1601:33:4902:23:2902:23:37.5002:23:37.500:006.3
DNCROGERS Dave 2237M 45-4900:00:0001:17:0201:23:1602:24:2602:24:35.9502:24:35.950:006.2
DNCLUTA Halil 1717M 35-3900:00:0201:29:3101:35:3802:25:4702:25:54.5002:25:56.700:006.2
DNCVICO Jenny 2160W 35-3900:00:0101:29:1201:34:2002:27:2502:27:32.4002:27:34.200:006.1
DNCWÅGAN André 1255M 25-2900:00:0201:16:1001:22:5002:27:3402:27:42.3002:27:44.900:006.1
DNCCARBONI Letizia 2114W 30-3400:00:0202:33:5802:34:07.3502:34:10.000:005.8
DNCMANDAS Emanuela 2113W 30-3400:00:0202:33:5902:34:08.4502:34:11.200:005.8
DNCBALOGH Zsolt 2251M 45-4900:00:0001:18:3301:26:1002:36:2102:36:32.2002:36:32.200:005.7
DNCKVIKSTAD Rune 2191M 45-4900:00:0101:37:4501:43:2602:36:2602:36:33.0502:36:34.750:005.7
DNCPÉREZ Sergio Gómez 1382M 25-2900:00:0101:18:3201:24:4602:36:4302:36:59.3502:37:00.900:005.7
DNCLEDO Adrián 1364M 25-2900:00:0101:12:5101:19:2802:37:08.6502:37:10.100:005.7
DNCPIOTROWSKI Grzegorz 1187M 18-2400:00:0201:20:1601:27:1002:37:40.1502:37:42.550:005.7
DNCDZIDT Małgorzata 2069W 30-3400:00:0102:38:0702:38:17.2502:38:18.700:005.7
DNCKOČVARA Luboš 1560M 30-3400:00:0001:24:2401:30:1802:38:1902:38:28.8002:38:28.800:005.7
DNCCHOUVARDAS Efstratios 2266M 45-4900:00:0201:36:1901:42:1802:38:5602:39:03.4502:39:06.200:005.7
DNCMARRAS Cinzia 2085W 30-3400:00:0202:38:5802:39:07.4502:39:09.950:005.7
DNCCHRISTOPHER Bailly 1286M 25-2900:00:0101:21:5501:27:3202:39:0702:39:17.2502:39:18.900:005.7
DNCWAHR-HANSEN Julie Alexandra 1136W Elite00:00:0101:24:4001:30:2502:41:0502:41:10.8002:41:12.700:005.6
DNCJANSEN Roel 2213M 45-4900:00:0201:34:2601:42:3602:41:5202:41:58.0502:42:00.350:005.6
DNCDAVID Sebastien 1068M Elite00:00:0101:13:5401:19:3102:42:1202:42:31.3002:42:32.750:005.5
DNCTAUBE Daniel 1829M 40-4400:00:0201:25:5501:31:2402:42:5402:43:11.1002:43:13.600:005.5
DNCQVIST Tobias 1936M 40-4400:00:0201:42:3601:48:2102:44:0502:44:12.7502:44:14.900:005.5
DNCVANĚK Aleš 1938M 40-4400:00:0201:36:2101:43:4602:44:4702:44:55.3502:44:58.050:005.5
DNCGREIBIG Michaela 2108W 30-3400:00:0201:43:4601:51:4002:45:4202:45:50.9002:45:53.450:005.4
DNCEIßMANN Jörg 2193M 45-4900:00:0101:06:1901:12:5802:45:4202:46:09.3502:46:10.550:005.4
DNCPANITZ Erich 1490M 30-3400:00:0001:32:1501:39:0602:46:1202:46:22.2002:46:22.200:005.4
DNCSZUMLAŃSKI Marcin 1520M 30-3400:00:0001:46:3901:54:1702:46:5202:46:58.8502:46:58.850:005.4
DNCLARNEMARK David 1523M 30-3400:00:0001:36:1601:43:2002:47:1502:47:24.8502:47:24.850:005.4
DNCGARNIER Anouk 1133W Elite00:00:0001:37:4201:45:2302:49:0502:49:12.4502:49:12.450:005.3
DNCDIJK Sandra Van 2174W 40-4400:00:0101:33:3201:40:4702:49:0702:49:10.8502:49:12.750:005.3
DNCHEIBØ Gunn Elin 2337W 45-4900:00:0301:49:4902:49:2102:49:27.8002:49:30.800:005.3
DNCPELIZZA Matteo 1145M 18-2400:00:0101:10:3001:15:5702:49:3402:49:54.6502:49:56.400:005.3
DNCHORVÁTH Róbert 1963M 13-1700:00:0101:23:0601:29:3302:51:1702:51:23.2502:51:24.850:005.3
DNCKRÜGER Tim 1412M 30-3400:00:0001:41:5801:47:1302:52:0802:52:17.0502:52:17.050:005.2
DNCHOGARTH Gavin 1737M 35-3900:00:0101:10:3801:15:5402:53:3302:53:39.7002:53:41.250:005.2
DNCPRZYSTAW Maxim 1574M 30-3400:00:0001:45:2601:53:3802:54:2502:54:34.8002:54:34.800:005.2
DNCAVRAMIOTIS Konstantinos 1468M 30-3400:00:0001:31:0901:37:2202:56:0302:56:16.3002:56:16.300:005.1
DNCADAMEC Jakub 1172M 18-2400:00:0101:13:4101:19:2802:56:5402:57:04.8502:57:06.650:005.1
DNCVERSTUYFT Kwinten 1054M Elite00:00:0102:12:1402:18:1302:58:0602:58:10.4002:58:12.050:005.1
DNCTYL Lukáš 1500M 30-3400:00:0001:27:3601:33:5702:59:5203:00:08.6503:00:08.650:005
DNCKILIMNIK Tomasz 1484M 30-3400:00:0001:35:5301:42:5003:00:1403:00:22.9003:00:22.900:005
DNCOOSTERS Giovani 1808M 40-4400:00:0101:22:2601:29:0203:00:2903:00:46.2503:00:47.500:005
DNCOLSSON Lucas 1157M 18-2400:00:0201:55:4502:03:2203:00:5803:01:07.3503:01:09.800:005
DNCMOROZOV Stepan 1657M 35-3900:00:0101:33:3001:39:5603:01:0003:01:09.3003:01:10.300:005
DNCDELOGE Alexandre 1931M 40-4400:00:0201:52:3902:00:3303:01:2903:01:36.7003:01:39.000:005
DNCHARTLEY Robert James 1532M 30-3400:00:0001:49:5301:58:1103:01:3703:01:45.2503:01:45.250:005
DNCOCHERETIUK Andrii 1271M 25-2900:00:0201:22:0001:28:1303:01:4703:01:56.8003:01:59.250:004.9
DNCSHIROKOV Igor 1720M 35-3900:00:0201:48:4201:54:5703:02:0303:02:11.5503:02:14.300:004.9
DNCESTELLÉ Olga 2054W 25-2900:00:0101:38:5701:46:0903:02:2203:02:29.9503:02:31.500:004.9
DNCBENICEWICZ Kacper 1299M 25-2900:00:0101:53:2002:00:4603:03:0003:03:06.6503:03:08.100:004.9
DNCGÓMEZ Sergio Morales 1602M 30-3400:00:0101:29:5601:36:2703:03:4403:04:07.0003:04:08.950:004.9
DNCSANTOS Luis 1292M 25-2900:00:0101:39:5101:47:0703:04:1003:04:19.4503:04:20.850:004.9
DNCHELGERS Mike 1809M 40-4400:00:0101:37:4101:44:5103:04:3103:04:38.3503:04:40.250:004.9
DNCDAY Nick 1777M 35-3900:00:0201:34:3501:39:3703:04:4703:04:54.3503:04:56.650:004.9
DNCCHRISTENSEN Michael 1396M 30-3400:00:0001:52:0901:59:3903:05:3903:05:46.7003:05:46.700:004.8
DNCEDBERG Jens 1049M Elite00:00:0101:56:0302:04:4503:05:4003:05:54.4503:05:56.350:004.8
DNCIGNATJEVS Imants 1710M 35-3900:00:0301:43:1301:49:4303:05:5503:06:26.7503:06:30.600:004.8
DNCKORYTOVA Katerina 2178W 40-4400:00:0101:52:4702:00:0103:06:3003:06:36.6003:06:37.650:004.8
DNCPESEK Petr 1087M Elite00:00:0101:29:4101:35:3103:06:2903:06:37.9003:06:39.800:004.8
DNCFELLDIN Markus 1387M 25-2900:00:0201:54:4902:01:3703:06:3503:06:43.5003:06:46.050:004.8
DNCBRUECKER Christoph 1786M 35-3900:00:0202:01:0502:09:2003:06:5503:07:04.8003:07:07.700:004.8
DNCEASTWOOD Graham 1601M 30-3400:05:0201:52:3901:58:5503:02:3103:02:39.2003:07:41.450:004.9
DNCSTEENSGAARD Ida Mathilde 1115W Elite00:00:0101:14:2603:08:15.9503:08:17.450:004.8
DNCHAPEOF Mathias 1075M Elite00:00:0201:38:4901:45:5103:08:1403:08:23.8003:08:26.100:004.8
DNCRAEYMAEKERS Siebe 1415M 30-3400:00:0001:30:1601:36:1703:08:2703:08:35.9003:08:35.900:004.8
DNCJONSSON Daniel 2202M 45-4900:00:0201:31:2201:38:0303:10:1003:10:18.2503:10:20.550:004.7
DNCBATES Daniel 2208M 45-4900:00:0201:39:4401:46:1203:10:1003:10:18.0503:10:20.800:004.7
DNCNOWAK Lukasz 1354M 25-2900:00:0201:58:0702:05:3403:11:3703:11:44.2503:11:46.500:004.7
DNCTAUER Tomáš 2259M 45-4900:07:0301:54:0902:02:1103:05:0303:05:18.3503:12:21.800:004.9
DNCCHOŁUJ Łukasz 1472M 30-3400:00:0001:41:2201:48:0403:12:5703:13:05.3503:13:05.350:004.7
DNCBRUUN Emil Hvidenlund 1195M 18-2400:00:0201:18:0701:24:4403:12:5503:13:04.2503:13:06.500:004.7
DNCHAAN John De 1575M 30-3400:00:0001:54:2302:02:1603:13:47.8503:13:47.850:004.6
DNCČERNÝ Vaclav 1403M 30-3400:00:0001:23:5201:30:0303:13:5203:14:04.8503:14:04.850:004.6
DNCBOCCON Alexandre 1046M Elite00:00:0201:30:4701:36:2903:14:0203:14:09.7503:14:12.050:004.6
DNCDIJKSTRA Dooitze 1647M 35-3900:00:0201:23:1201:29:2803:14:0003:14:18.4503:14:20.950:004.6
DNCGIACONE Massimo 1568M 30-3400:00:0001:59:0602:06:1803:14:2703:14:44.8003:14:44.800:004.6
DNCKHOSCHNUD Ramin 1691M 35-3900:00:0201:48:1201:54:1503:14:3403:14:43.2503:14:45.350:004.6
DNCESENIA 1993W 18-2400:00:0103:15:1403:15:21.2503:15:22.950:004.6
DNCROTH Zdeněk 1393M 30-3400:00:0002:04:5202:11:1603:15:5103:16:01.0503:16:01.050:004.6
DNCADOLFSEN Kristoffer 1037M Elite00:00:0201:27:4601:33:5303:16:2203:16:30.4503:16:32.700:004.6
DNCKORTHOUT Bruce 1315M 25-2900:00:0101:47:4401:54:1803:17:0203:17:08.1503:17:10.000:004.6
DNCSCHEFER Erik 1319M 25-2900:00:0201:46:4601:53:3503:17:0603:17:17.8503:17:20.400:004.6
DNCMARIA Smyshlyaeva 1107W Elite00:00:0001:37:0601:44:4103:17:1703:17:27.0503:17:27.050:004.6
DNCMACIEJEWSKI Krystian 1334M 25-2900:00:0202:12:5802:18:5903:17:2603:17:33.3503:17:36.200:004.6
DNCKIRCHHOFF Andre 1168M 18-2400:00:0202:07:5402:15:0403:18:0603:18:14.4503:18:17.050:004.5
DNCSCHOUTEN Wim 1512M 30-3400:00:0001:55:4302:02:5503:18:24.1503:18:24.150:004.5
DNCBOZIC Sarah 2129W 35-3900:00:0101:56:1102:02:3203:18:3003:18:38.4003:18:40.000:004.5
DNCBALASHOV Roman 1477M 30-3400:00:0001:47:5401:55:0603:18:4003:18:51.1503:18:51.150:004.5
DNCRATEL Vincent 1394M 30-3400:00:0001:58:5502:07:3003:18:4103:18:51.3003:18:51.300:004.5
DNCMONSTAD Brage Malm 1182M 18-2400:00:0202:04:2602:08:3703:18:4803:19:07.9003:19:09.900:004.5
DNCBEELEN Timothy Van 1445M 30-3400:00:0001:46:3201:53:4103:19:4803:19:52.4503:19:52.450:004.5
DNCPROCHASSON Baptiste 1265M 25-2900:00:0201:34:2601:41:2403:19:4803:19:57.0503:19:59.200:004.5
DNCBRØDLØS Kristian 1663M 35-3900:03:0301:53:1602:00:2903:16:5803:17:06.5503:20:10.150:004.6
DNCWRIGHT Jason 2233M 45-4900:00:0001:40:1901:48:3503:20:0803:20:25.8503:20:25.850:004.5
DNCLOEVE Marc 1895M 40-4400:00:0101:46:0901:53:0803:20:1603:20:25.4503:20:27.000:004.5
DNCNATALI Monica 2347W 55+00:00:0201:46:5601:54:3403:20:1603:20:31.3003:20:33.650:004.5
DNCTHOMSEN Annika Højrup Runegaard 1120W Elite00:00:0101:13:3001:19:1803:20:5003:20:57.8503:20:59.600:004.5
DNCGALTIER Muriel 1123W Elite00:00:0001:59:0502:07:0603:21:0603:21:15.4503:21:15.450:004.5
DNCHOWARD John 1435M 30-3400:00:0001:45:2301:52:3303:21:5003:21:56.2503:21:56.250:004.5
DNCŠAŠKOVÁ Zuzana 2142W 35-3900:00:0102:13:0202:19:4903:22:37.7503:22:39.400:004.4
DNCHOLUBAR Martin 1622M 35-3900:00:0001:44:4801:51:1103:22:3903:22:42.9003:22:43.550:004.4
DNCSTEJSKALOVÁ Barbora 1121W Elite00:00:0002:04:3402:12:4103:22:3703:22:55.7503:22:55.750:004.4
DNCWRÓBEL Jacek 1215M 18-2400:00:0101:52:3602:00:2703:22:4903:22:55.2003:22:56.900:004.4
DNCEBERT Damian 1213M 18-2400:00:0101:21:1501:28:0203:23:0103:23:20.2003:23:21.850:004.4
DNCKOPŘIVA Martin 1642M 35-3900:00:0101:59:1302:03:5903:23:1903:23:23.5503:23:24.950:004.4
DNCSLAMENIK Bedrich 1835M 40-4400:00:0302:03:4502:10:5003:23:2103:23:35.1003:23:38.650:004.4
DNCROEFFAERS Sander 1376M 25-2900:00:0001:55:5202:04:5603:23:2903:23:39.0003:23:39.000:004.4
DNCVLIEGEN Astrid 2074W 30-3400:00:0101:48:0901:56:1503:23:3203:23:39.1003:23:40.550:004.4
DNCPUCHACZ Michael 1481M 30-3400:00:0002:05:1802:14:5603:23:5403:24:14.6503:24:14.650:004.4
DNCARNESEN Stian 1088M Elite00:00:0102:22:2802:27:1203:24:2303:24:31.0503:24:32.800:004.4
DNCBÜHRING Sven 1879M 40-4400:00:0202:02:2802:09:5503:24:3803:24:46.0003:24:48.950:004.4
DNCTRAJKOVSKA Marta Kruszczynska 2128W 35-3900:00:0202:04:4502:12:1203:24:5703:25:06.7503:25:08.750:004.4
DNCGODEC Thomas 1767M 35-3900:00:0102:25:5002:31:5503:25:1903:25:24.9003:25:26.050:004.4
DNCKONÍČEK Filip 1491M 30-3400:00:0002:05:3302:13:2203:25:2303:25:38.1003:25:38.100:004.4
DNCSERNBO Jens 2296M 50-5400:00:0002:10:3802:18:0903:25:3603:25:45.9003:25:46.200:004.4
DNCVEKLYCH Oksana 1117W Elite00:00:0202:05:4102:12:0103:26:1703:26:23.8503:26:26.200:004.4
DNCCZAPRAN Marek 1756M 35-3900:00:0102:06:0402:12:4203:26:2603:26:30.9503:26:32.900:004.4
DNCBAKER Stephen 1634M 35-3900:00:0202:03:0402:11:3903:26:2303:26:31.8003:26:33.800:004.4
DNCGUNN Paul 1850M 40-4400:00:0102:16:4502:26:1603:26:3303:26:39.0003:26:40.950:004.4
DNCLARSEN Øystein Høines 1483M 30-3400:00:0001:48:4501:55:1603:26:5403:27:01.5503:27:01.550:004.3
DNCDRABORG Helene 2013W 18-2400:00:0202:08:0402:14:4803:26:5903:27:06.4503:27:08.700:004.3
DNCKRITIKOS Ilias 1233M 25-2900:00:0202:15:5602:23:5703:27:0403:27:12.3503:27:14.900:004.3
DNCREINHOLD David 1714M 35-3900:03:0201:48:5901:56:3103:24:1803:24:27.6503:27:30.150:004.4
DNCŠEDA Radek 1820M 40-4400:00:0302:08:0902:14:0603:27:3003:27:36.1503:27:39.650:004.3
DNCVOIGT Stephan 1844M 40-4400:00:0202:05:2802:12:5903:27:3803:27:46.6503:27:49.000:004.3
DNCHEIMBURG Stefan Von 1912M 40-4400:00:0202:30:5802:38:1603:28:2103:28:30.3003:28:33.100:004.3
DNCDOMORÁD Vojtěch 1592M 30-3400:00:0202:07:5002:14:4203:28:3903:28:46.6003:28:48.950:004.3
DNCWILLIS Richard 2248M 45-4900:00:0202:10:5902:16:5303:28:4303:28:50.4003:28:52.550:004.3
DNCILNICKI Darek 1418M 30-3400:00:0001:39:5501:46:3103:28:5503:29:04.9503:29:04.950:004.3
DNCAPPLETON-SMITH Martyn 1771M 35-3900:00:0202:05:4102:13:3503:29:1003:29:19.0503:29:22.000:004.3
DNCLUNDIN Alexandra 2089W 30-3400:00:0102:03:2302:11:2703:29:1303:29:20.5503:29:22.400:004.3
DNCCASTRO Christian Danis 1201M 18-2400:00:0201:35:5401:43:0103:29:1003:29:31.6503:29:33.900:004.3
DNCMELIS Giacomo 1370M 25-2900:00:0201:51:3001:57:4403:30:0303:30:11.9503:30:14.000:004.3
DNCАКИМОВ Евгений 1951M 40-4400:00:0101:53:5602:00:4303:30:1003:30:17.7003:30:19.500:004.3
DNCJOLY Antoine 1707M 35-3900:00:0202:07:2302:15:3903:30:2403:30:35.7003:30:38.100:004.3
DNCSTØRKSEN Lotte 2086W 30-3400:00:0102:03:2602:10:4803:31:0503:31:11.8503:31:13.300:004.3
DNCKRÓLAK Margarita 2011W 18-2400:00:0203:31:1603:31:25.3503:31:27.350:004.3
DNCBARKSKOG Fredrik 1627M 35-3900:03:0302:00:3902:06:1103:28:0903:28:27.8503:31:31.250:004.3
DNCGRIFFITHS James 1593M 30-3400:00:0202:08:0402:16:0703:31:2303:31:31.4003:31:33.450:004.3
DNCJUSZCZYK Jaroslaw 1661M 35-3900:00:0202:15:1302:22:0203:31:5503:32:04.1003:32:06.700:004.2
DNCMAXIMOV Andrey 1262M 25-2900:00:0201:26:1001:33:0103:32:4203:32:51.4503:32:54.100:004.2
DNCJOHANSSON Billy 2283M 50-5400:00:0102:00:3502:08:2703:33:0903:33:23.5503:33:24.850:004.2
DNCSCHERBA Kamil 1573M 30-3400:02:0201:59:1202:05:1503:31:1303:31:23.3503:33:25.700:004.3
DNCMARONGIU Andrea 1322M 25-2900:00:0201:37:2801:45:0803:33:1703:33:27.1003:33:29.350:004.2
DNCLOPES Marco 1093M Elite00:00:0101:25:5501:33:1003:33:3803:33:59.9503:34:01.000:004.2
DNCJANUSZEWSKI Andrzej 1473M 30-3400:00:0002:15:0502:21:5603:33:5703:34:05.0003:34:05.000:004.2
DNCНИКУЛИНА Екатерина 2020W 25-2900:00:0102:06:3602:16:1203:34:1103:34:18.4503:34:20.000:004.2
DNCHINTON Mike 1662M 35-3900:03:0002:11:4102:19:2103:31:2003:31:27.1003:34:27.950:004.3
DNCRYLKOVA Katerina 2109W 30-3400:00:0102:03:3502:12:1503:34:5103:34:56.6003:34:58.300:004.2
DNCFIORIO Davide 2301M 50-5400:00:0002:14:1302:22:5103:34:4703:34:58.1003:34:58.550:004.2
DNCNORRMAN Sandra 2051W 25-2900:00:0202:11:0702:19:4703:35:0203:35:09.4503:35:12.000:004.2
DNCGILBERT Nicolas 1742M 35-3900:00:0202:00:5802:08:0703:35:0203:35:14.1503:35:16.500:004.2
DNCPETERSEN Thomas 1454M 30-3400:00:0001:28:1201:35:3003:35:1803:35:27.0503:35:27.050:004.2
DNCBARANOWSKA Katarzyna 1129W Elite00:00:0101:29:5601:36:3803:35:3203:35:44.4503:35:46.400:004.2
DNCJOHANSSON Tom 1238M 25-2900:00:0401:39:1601:46:2603:35:5503:36:11.3003:36:15.900:004.2
DNCJANOWSKI Jano 1731M 35-3900:00:0102:05:5802:13:4903:36:0603:36:15.1503:36:16.500:004.2
DNCGEOFFREY Bréda 1180M 18-2400:00:0201:25:4401:32:3003:36:3703:36:44.8503:36:47.150:004.2
DNCARVIDSSON Sara 2062W 25-2900:00:0102:07:1102:15:4103:36:5103:37:00.1003:37:01.450:004.1
DNCDOUHAN Dylan 1179M 18-2400:00:0202:04:2002:15:0303:36:4303:37:00.1003:37:02.200:004.1
DNCBRONS Sonny 1244M 25-2900:00:0101:31:0501:37:5703:37:2403:37:32.6503:37:34.450:004.1
DNCPENNISI Dario 2260M 45-4900:00:0202:00:3402:08:3003:37:2403:37:35.4003:37:37.850:004.1
DNCSELYMES Kinga 2135W 35-3900:00:0203:37:2903:37:39.1003:37:41.500:004.1
DNCFELLDIN Jenny 2064W 25-2900:00:0202:09:0702:17:0403:37:3503:37:41.8003:37:44.150:004.1
DNCGATZ Detlef 2297M 50-5400:00:0002:02:3302:10:4703:37:5003:37:58.8503:37:59.050:004.1
DNCSÖDERSTRÖM Andreas 2223M 45-4900:00:0001:27:5001:34:0303:37:5503:38:05.0503:38:05.050:004.1
DNCBELOEIL Jenny Dreano 2116W 30-3400:00:0203:38:1303:38:24.4003:38:26.850:004.1
DNCFAVA Alan 1743M 35-3900:00:0302:13:5702:22:1303:38:2103:38:29.8503:38:33.300:004.1
DNCPETERSEN Ulf 1789M 35-3900:00:0201:37:1001:42:5703:38:3903:38:56.8503:38:59.200:004.1
DNCDUUREN Ruben Van 1294M 25-2900:00:0101:45:2401:52:1603:38:4903:38:58.0003:38:59.850:004.1
DNCKASCHE Denny 1542M 30-3400:00:0002:12:3302:24:0103:38:4503:39:01.4003:39:01.400:004.1
DNCARTZ Claus 1440M 30-3400:00:0002:20:5002:27:5203:39:0803:39:17.1503:39:17.150:004.1
DNCDONALD Lee 2126W 35-3900:00:0102:15:5602:23:3403:39:2603:39:34.0503:39:35.100:004.1
DNCMIKUŠ Michal 1680M 35-3900:00:0102:19:0802:25:2203:39:3003:39:37.5503:39:38.900:004.1
DNCMAGALHÃES José Pedro 1867M 40-4400:00:0102:10:1602:17:5603:39:3303:39:41.0003:39:42.750:004.1
DNCSVENSSON Linda 2181W 40-4400:00:0201:59:4802:07:3703:39:4503:39:55.4003:39:57.400:004.1
DNCHARRIBEY Léa 2030W 25-2900:00:0102:12:2902:18:0803:39:4903:39:56.6003:39:58.400:004.1
DNCENDEJANN Raphael 1360M 25-2900:00:0102:07:0602:14:5503:39:5403:40:02.2003:40:03.700:004.1
DNCCHILDS Jake 1320M 25-2900:00:0202:11:3002:20:4603:40:0203:40:09.7003:40:12.400:004.1
DNCALESSANDRO Pilotta 2226M 45-4900:00:0001:41:5401:49:5803:40:5503:41:02.7003:41:02.700:004.1
DNCKOLLBERG Louise 1992W 18-2400:00:0202:09:2902:17:4403:40:5303:41:01.1503:41:03.250:004.1
DNCSVENSSON Nicklas 1347M 25-2900:00:0202:04:0502:10:3403:41:0703:41:13.9003:41:16.800:004.1
DNCDESCHAMPS Emmanuel 1363M 25-2900:00:0101:39:0701:45:2203:41:1803:41:27.1003:41:28.750:004.1
DNCJANSSON Victoria 2169W 40-4400:00:0202:17:0302:24:0903:41:4403:41:51.2003:41:53.500:004.1
DNCRAVIZZA Marco Alfredo 2230M 45-4900:00:0002:16:3202:24:2303:42:0003:42:08.8003:42:08.800:004.1
DNCGREINER Daniel 1666M 35-3900:00:0001:24:5901:30:0903:42:0503:42:31.3003:42:32.250:004
DNCROLIN Erika 2036W 25-2900:00:0102:14:0802:23:5503:42:3503:42:42.2003:42:43.250:004
DNCCADDICK James 1467M 30-3400:00:0002:13:3902:23:1803:43:2903:43:34.6503:43:34.650:004
DNCŁASKOWSKI Piotr 1588M 30-3400:05:0202:00:2102:06:0003:38:1903:38:36.9503:43:39.500:004.1
DNCHORBACH Lars 1501M 30-3400:00:0002:14:4102:20:1803:43:3603:43:41.8503:43:41.850:004
DNCKYRYCH Michaela 2157W 35-3900:00:0202:17:1702:25:0603:43:3703:43:46.3003:43:48.700:004
DNCZALEWSKI Michał 1372M 25-2900:00:0101:39:2801:46:1103:43:4203:43:49.8003:43:51.500:004
DNCPALUCH Eddy 1558M 30-3400:00:0002:23:4202:31:3503:43:4303:43:54.2003:43:54.200:004
DNCSALUSTE Carry 1050M Elite00:00:0202:24:2402:31:3303:43:4903:43:55.8503:43:57.900:004
DNCMOLGORA Gabriele 1577M 30-3400:00:0001:32:2801:38:3203:43:5003:44:01.2003:44:01.200:004
DNCTRIBAN Matteo 1531M 30-3400:00:0001:29:4801:35:4703:44:06.8003:44:06.800:004
DNCSONDA Martin 1876M 40-4400:00:0202:19:4002:27:5503:44:0103:44:06.4503:44:08.800:004
DNCJÜRGENS Friedrich 2264M 45-4900:00:0102:09:2002:17:3903:44:5103:44:59.2003:45:01.050:004
DNCPAL Mario 2252M 45-4900:00:0202:09:1902:17:3903:44:59.1503:45:01.350:004
DNCMACH Martin 2254M 45-4900:00:0202:04:0902:11:2503:45:0903:45:16.7503:45:19.450:004
DNCVERDIJK Ferrie 1792M 35-3900:00:0102:25:3802:31:5703:45:1203:45:19.8503:45:21.550:004
DNCDMUCH Jakub 1267M 25-2900:00:0101:29:2401:36:1103:45:1203:45:22.1503:45:23.550:004
DNCMIODEK Adrian 1664M 35-3900:00:0102:09:4402:19:2303:45:2503:45:30.2003:45:32.150:004
DNCJOHANSEN Philip Hust 1229M 25-2900:00:0201:49:2701:56:0303:45:3403:45:43.6503:45:46.550:004
DNCGUTIERREZ Jonathan Sanchez 1081M Elite00:00:0102:25:4202:32:0603:46:1803:46:24.8503:46:26.300:004
DNCKNOPF Philipp 1028M Elite00:00:0202:31:0202:36:4203:46:4203:46:49.9003:46:52.300:004
DNCKRŠMARU Barbora 2120W 30-3400:00:0102:23:1402:30:5703:46:5603:47:05.8503:47:07.500:004
DNCHELCL Vojtěch 1831M 40-4400:00:0301:53:1702:00:3003:47:0003:47:05.3003:47:08.850:004
DNCJIRKU Milan 1608M 30-3400:00:0202:28:1002:34:0503:47:3003:47:37.1003:47:39.650:004
DNCNUYTS Rik 1826M 40-4400:06:0101:38:0901:45:1603:41:4203:41:49.8003:47:51.550:004.1
DNCTERETA Ivan 1257M 25-2900:00:0201:41:1701:48:1803:47:4303:47:53.3003:47:56.200:003.9
DNCPOLYAKOVA Alexandra 2084W 30-3400:00:0202:32:4202:39:3603:47:5703:48:13.3503:48:15.750:003.9
DNCRUDY Rychlinski 1465M 30-3400:00:0002:29:4202:37:3503:48:1603:48:23.0003:48:23.000:003.9
DNCWRIGHT Pete 1919M 40-4400:00:0102:22:1002:29:3903:48:2403:48:35.2503:48:36.500:003.9
DNCGRENET David 1069M Elite00:00:0201:33:3301:39:4703:48:3203:48:42.0003:48:44.600:003.9
DNCKJELLIN Tini 2343W 50-5400:00:0202:24:5002:33:1903:48:4203:48:49.8003:48:51.950:003.9
DNCWACKER Lukas 1494M 30-3400:00:0002:24:1502:31:5403:48:4603:49:02.3003:49:02.300:003.9
DNCWILKINSON Becca 2096W 30-3400:00:0102:25:5802:32:3803:49:2803:49:33.5503:49:35.450:003.9
DNCBORG Chiara 2098W 30-3400:00:0202:26:0002:31:0303:49:2703:49:33.2503:49:35.850:003.9
DNCREINHOLD Josef 1551M 30-3400:00:0001:57:5702:04:5903:49:3603:49:43.4003:49:43.400:003.9
DNCGRILOT Fabien 1437M 30-3400:00:0002:29:4202:37:3703:49:4403:49:54.4003:49:54.400:003.9
DNCSTRÖM Tomas 1678M 35-3900:00:0202:31:4102:37:3703:49:3803:49:57.1503:49:59.400:003.9
DNCWOODS Jason Ryan 1635M 35-3900:00:0201:32:5101:39:2803:50:0003:50:09.2503:50:11.450:003.9
DNCRASMUSSEN Bjarne 2276M 50-5400:00:0001:30:5101:37:2603:49:4903:50:12.9503:50:13.800:003.9
DNCBECKS Jose 1456M 30-3400:00:0002:25:4002:32:2003:49:5303:50:16.2003:50:16.200:003.9
DNCCATHRINEMS 2087W 30-3400:00:0102:15:5002:24:4903:50:1103:50:21.6003:50:22.750:003.9
DNCPROPERZI Valentina 2151W 35-3900:00:0103:50:0703:50:25.4003:50:26.500:003.9
DNCALEXANDRE Renato 1305M 25-2900:00:0202:07:5202:16:5803:50:1403:50:26.7503:50:29.200:003.9
DNCPUTMAN David 2269M 45-4900:00:0202:21:3102:29:2903:50:2403:50:33.9003:50:36.200:003.9
DNCJASIŃSKA Alicja 2324W 13-1700:00:0102:03:3402:11:3203:50:3503:50:42.5503:50:44.100:003.9
DNCSCHREUDER Myrte 2101W 30-3400:00:0102:08:4002:17:2303:50:4003:50:47.9003:50:49.750:003.9
DNCNAP Frank 1943M 40-4400:00:0202:17:1702:25:5103:51:0303:51:10.3003:51:12.900:003.9
DNCFRICK Emma 2058W 25-2900:00:0101:59:1302:07:3503:51:1803:51:23.4503:51:24.800:003.9
DNCJACKIEWICZ Lukasz 1589M 30-3400:00:0302:19:5502:30:0303:52:1203:52:20.3503:52:24.200:003.9
DNCMISSALA Magda 2325W 13-1700:00:0102:03:3402:11:3203:52:2603:52:32.7003:52:34.350:003.9
DNCRICHTER Lukáš 1719M 35-3900:00:0202:00:1102:06:5003:52:3603:52:44.5003:52:46.550:003.9
DNCDENNIS 1945M 40-4400:00:0202:33:3102:40:2103:52:5503:53:01.7503:53:04.650:003.9
DNCKAMIONKA Mateusz 1269M 25-2900:00:0201:29:0101:35:5403:53:3303:53:48.8503:53:50.950:003.8
DNCSTEEN Arie Van Der 1899M 40-4400:00:0101:57:0002:04:5003:54:0503:54:12.3503:54:13.900:003.8
DNCKIRKWOOD Emma 2081W 30-3400:00:0202:28:0902:38:3603:54:2603:54:33.3503:54:35.650:003.8
DNCLINDSKOG Cecilia 2155W 35-3900:00:0202:14:1402:20:3203:54:2303:54:42.0503:54:44.350:003.8
DNCTATIANA Samorokova 2034W 25-2900:00:0101:40:0201:47:1303:54:4103:54:49.7503:54:50.750:003.8
DNCDĄBROWSKI Przemysław 1685M 35-3900:00:0002:10:2002:17:3303:54:4703:54:52.3503:54:53.200:003.8
DNCMARTÍNEZ Rafael 1253M 25-2900:00:0101:19:4001:24:2003:54:5503:55:02.7003:55:04.200:003.8
DNCGIANNETTONI Lorenzo 1339M 25-2900:00:0201:20:2501:27:3103:54:4403:55:02.3003:55:04.750:003.8
DNCBEATTY Mark 1591M 30-3400:00:0302:04:1502:12:0203:55:07.0503:55:10.100:003.8
DNCTORESÄTER Ludvig "luddet" 1325M 25-2900:00:0202:20:2802:28:5703:55:1003:55:28.5503:55:30.900:003.8
DNCGLEUT Alexandre Le 1210M 18-2400:00:0201:41:2701:48:0403:55:2903:55:38.3503:55:40.500:003.8
DNCARUSZTOWICZ Bartosz 1683M 35-3900:00:0102:10:1902:17:3503:55:3503:55:43.7003:55:45.200:003.8
DNCPOULTER Mark 1511M 30-3400:00:0002:23:5802:34:0703:56:1503:56:24.1003:56:24.100:003.8
DNCUHLIG Ronny 1570M 30-3400:00:0002:34:2402:39:3303:56:3303:56:41.8003:56:41.800:003.8
DNCGRAY Scott 1610M 30-3400:00:0102:26:2002:38:0003:56:4903:56:57.1003:56:58.850:003.8
DNCSTENBÄCK Amanda 1997W 18-2400:00:0202:29:0902:35:4003:56:5203:56:58.8003:57:01.550:003.8
DNCVERSTEGEN Jurgen 1847M 40-4400:00:0101:54:4602:01:5003:57:0503:57:12.6503:57:14.000:003.8
DNCBIGLANDS Steve 2275M 50-5400:00:0001:57:1002:04:2803:57:0103:57:17.3003:57:17.550:003.8
DNCSIMMONS John 1203M 18-2400:00:0202:26:4102:38:2203:57:2603:57:34.5003:57:37.200:003.8
DNCHAMMARBÄCK Moa 1996W 18-2400:00:0202:29:0702:38:5503:57:3503:57:41.6003:57:44.150:003.8
DNCDALKIEWICZ Darek 2246M 45-4900:00:0102:18:3302:25:5603:57:2203:57:56.2503:57:57.750:003.8
DNCTHORKILDSEN Evy Marie 1116W Elite00:00:0002:23:4002:32:5503:58:0803:58:17.1003:58:17.100:003.8
DNCLAENEN René 1946M 40-4400:00:0202:32:5102:41:4403:58:4503:58:55.9003:58:58.600:003.8
DNCGRABNY Jaroslaw 1925M 40-4400:00:0102:43:2502:50:3803:59:3803:59:47.0003:59:48.100:003.8
DNCHUTCHISON Christopher 1464M 30-3400:00:0002:12:4802:22:2803:59:3803:59:49.2503:59:49.250:003.8
DNCNIELSEN Dennis 1480M 30-3400:00:0001:26:0901:32:1504:00:0204:00:11.6004:00:11.600:003.7
DNCPLATA Arkadiusz 1554M 30-3400:00:0002:41:5902:47:3004:00:2304:00:30.7004:00:30.700:003.7
DNCÖLUND Emma 2070W 30-3400:00:0202:28:4002:38:0304:00:2304:00:30.1004:00:32.150:003.7
DNCBOBBY Selimir Saskin 1909M 40-4400:00:0102:43:2202:51:3004:00:2604:00:35.0004:00:36.950:003.7
DNCHAWKINS Nathan 1514M 30-3400:00:0002:30:2202:42:0104:00:5004:00:58.5004:00:58.500:003.7
DNCSZUBA-ŁATA Klaudia 1984W 18-2400:00:0101:29:1101:36:5504:00:5704:01:08.1004:01:09.950:003.7
DNCCAMPBELL Colin 1891M 40-4400:00:0202:32:2802:39:2004:00:5204:01:12.0504:01:14.700:003.7
DNCBERGE Kjetil 1628M 35-3900:00:0302:20:3202:27:1704:01:3504:01:42.8504:01:46.300:003.7
DNCBONDARENKO Andriy 1323M 25-2900:00:0201:57:0502:04:3604:01:4104:01:50.6004:01:52.700:003.7
DNCO'MALLEY Kevin 1822M 40-4400:00:0202:32:3102:39:5304:01:4404:01:54.4504:01:56.650:003.7
DNCKERR Steven 1775M 35-3900:00:0202:32:0202:41:5004:02:0204:02:11.5004:02:14.300:003.7
DNCSERRÃO Tânia 2154W 35-3900:00:0202:35:1602:43:2904:02:1304:02:19.6504:02:21.950:003.7
DNCPINHAL Gisela 2144W 35-3900:00:0202:35:2302:43:2804:02:1304:02:19.9004:02:22.050:003.7
DNCLOKAJÍČKOVÁ Klára 1134W Elite00:00:0002:50:3902:59:0504:02:3704:02:45.5004:02:45.500:003.7
DNCJANOUŠEK Petr 1197M 18-2400:00:0202:16:3702:26:2004:02:3904:02:57.3504:02:59.850:003.7
DNCJURNÍK Lukáš 1207M 18-2400:00:0202:16:3702:26:1904:03:0404:03:11.0004:03:13.950:003.7
DNCSCHLAG Yannic 1220M 18-2400:00:0202:15:3602:23:3104:03:0704:03:14.1504:03:16.950:003.7
DNCZEBERG Alicia 2322W 13-1700:00:0102:15:5802:27:5804:03:0504:03:16.0004:03:17.750:003.7
DNCANDYHOLMES7 2253M 45-4900:00:0102:42:5802:50:3804:03:2904:03:36.3504:03:38.100:003.7
DNCSPÅNG Malin 2184W 40-4400:00:0202:20:2202:31:3204:03:4104:04:02.2504:04:04.500:003.7
DNCIJZENDOORN Charissa 2111W 30-3400:00:0102:19:4602:28:0804:03:5704:04:06.8004:04:08.650:003.7
DNCMONTAN Johan 1797M 35-3900:00:0302:13:2802:18:5104:04:1204:04:19.8004:04:23.250:003.7
DNCHARDY Alice 2048W 25-2900:00:0102:30:2102:37:2904:04:33.7004:04:35.450:003.7
DNCHIRST Layla 2063W 25-2900:00:0102:30:2102:37:0104:04:2804:04:34.4004:04:35.750:003.7
DNCLIESHOUT Frank Van 1258M 25-2900:00:0102:46:3502:52:0504:04:2804:04:34.0504:04:35.750:003.7
DNCANASTASIA Bondarenko 2059W 25-2900:00:0102:19:2002:28:0904:04:1804:04:34.8004:04:36.350:003.7
DNCPALAIKIENE Inga 1128W Elite00:00:0202:45:3002:52:4804:04:4704:04:53.3004:04:55.950:003.7
DNCEVALDSSON Daniel 1907M 40-4400:00:0102:33:3002:41:4204:04:5404:05:01.7504:05:03.250:003.7
DNCFRISARI Cecilia 2022W 25-2900:00:0102:06:0402:14:3204:04:5604:05:04.1504:05:05.850:003.7
DNCZEMAN David 1681M 35-3900:03:0101:51:4001:59:3404:02:0204:02:09.4504:05:11.300:003.7
DNCSCHMIDT Holger 2210M 45-4900:00:0202:21:4802:28:0204:05:0404:05:14.1504:05:16.500:003.7
DNCKOMOSIŃSKI Łukasz 1611M 30-3400:00:0201:42:0201:47:3904:05:0904:05:17.1504:05:19.800:003.7
DNCTEJERO Javier Casado 1375M 25-2900:00:0102:13:2702:23:0404:05:1204:05:20.0504:05:21.700:003.7
DNCMARTIN Astrid 2031W 25-2900:00:0102:38:4802:45:4004:05:1704:05:25.2004:05:27.150:003.7
DNCVEČERNÍKOVÁ Barbora 2328W 13-1700:00:0102:37:5402:48:2504:05:1804:05:26.9504:05:28.600:003.7
DNCCRUICKSHANK Phil 2280M 50-5400:00:0002:15:1802:28:1104:05:2304:05:31.7504:05:32.200:003.7
DNCCEDERHOLM Jonny 2316M 55+00:00:0101:45:4001:53:4804:05:2504:05:49.3004:05:50.350:003.7
DNCLÜPKE Sebastian 1304M 25-2900:00:0202:49:3802:54:2504:05:4004:05:48.7004:05:51.300:003.7
DNCOLESEN Christina 2348W 55+00:00:0202:30:3202:39:5904:05:4504:05:49.8504:05:52.050:003.7
DNCGRESZTA Waldemar 2268M 45-4900:00:0201:47:0501:54:3004:05:4204:06:01.7004:06:04.200:003.7
DNCHEIDER Florian 1488M 30-3400:00:0002:32:3202:39:3204:05:5304:06:05.6004:06:05.600:003.7
DNCSAMTLEBE Thomas Hebbe 1873M 40-4400:00:0202:36:3602:44:5404:05:5504:06:05.7004:06:08.300:003.7
DNCGRABAUSKAS Tautvydas 1958M 40-4400:00:0102:43:5502:52:1304:06:1604:06:28.0004:06:29.800:003.7
DNCGHINZELLI Dario 1772M 35-3900:00:0102:34:1702:41:4004:06:2804:06:34.7504:06:36.150:003.6
DNCPIDGEON Kieran 1753M 35-3900:00:0202:44:0002:51:0304:06:2704:06:34.7004:06:37.600:003.6
DNCDAVEY Jeremy 1738M 35-3900:00:0202:44:0002:48:5804:06:2704:06:35.3004:06:38.000:003.6
DNCKORMESETH-RØDAL Celine 2033W 25-2900:00:0102:22:0502:28:3504:06:3504:06:42.5504:06:43.850:003.6
DNCKUŽELÍKOVÁ Zuzana 2050W 25-2900:00:0102:09:5002:20:3904:07:1304:07:22.2504:07:24.100:003.6
DNCJONSSON Sara 2336W 45-4900:00:0002:45:2602:55:0404:07:2104:07:30.2004:07:30.200:003.6
DNCČERVEŇÁK Radim 1295M 25-2900:00:0202:02:1702:08:3604:07:2404:07:31.5504:07:33.850:003.6
DNCCAULA Giulia 2004W 18-2400:00:0202:27:4702:35:4704:07:2604:07:32.9504:07:35.500:003.6
DNCVRIES Lisan De 2175W 40-4400:00:0101:29:5401:37:0004:07:3204:07:42.0004:07:43.050:003.6
DNCHANNABUSS Daniel 2232M 45-4900:00:0002:46:5702:54:3504:08:16.4504:08:16.450:003.6
DNCPEDERSEN Brian 1863M 40-4400:00:0402:14:3602:22:2104:08:2204:08:28.3504:08:32.800:003.6
DNCBENGTSSON Per 2314M 55+00:00:0102:37:3202:46:3404:08:3404:08:44.4004:08:45.500:003.6
DNCSTEPHAN Thomas 1186M 18-2400:00:0101:28:2701:34:5504:08:5504:09:03.8004:09:05.650:003.6
DNCARONSSON Alexander 1301M 25-2900:00:0202:17:3202:24:5604:09:3404:09:40.6004:09:43.400:003.6
DNCLACOUR Renaud 1443M 30-3400:00:0001:32:4001:39:1704:09:3704:10:11.7504:10:11.750:003.6
DNCVACKOVÁ Terka 2061W 25-2900:00:0202:43:0802:49:1404:10:0504:10:13.4004:10:15.650:003.6
DNCKOERMENDI Csilla 2124W 35-3900:00:0202:59:5203:07:5004:10:41.0504:10:43.250:003.6
DNCBRORSSON Sebastian 1390M 25-2900:00:0202:40:3302:47:1204:10:4504:10:52.1504:10:54.700:003.6
DNCANDERSSON Henrik 1693M 35-3900:00:0302:46:2502:55:5804:10:5504:11:02.5504:11:05.650:003.6
DNCJACKSON Tracey 2338W 45-4900:00:0202:34:0202:41:3204:11:1204:11:18.9504:11:21.400:003.6
DNCDAMKOT Tom 1970M 13-1700:00:0101:46:4001:54:3504:11:1504:11:22.4504:11:24.100:003.6
DNCFOIS Alessandro 1205M 18-2400:00:0101:22:2801:29:2904:11:1704:11:34.7004:11:36.650:003.6
DNCDELBERGHE Aurélien 1734M 35-3900:00:0302:17:5202:24:5204:11:3704:11:46.5004:11:49.700:003.6
DNCLEICHT Steffen 1924M 40-4400:00:0102:39:0902:48:3804:11:5204:11:56.1504:11:58.100:003.6
DNCDUURSMA Paul 2239M 45-4900:00:0002:44:4202:51:0204:11:5704:12:05.5504:12:05.550:003.6
DNCSWART Maarten 1673M 35-3900:00:0102:14:5802:22:4904:12:0404:12:11.5504:12:12.550:003.6
DNCSEGARRA Jossuan 1217M 18-2400:00:0203:02:2203:08:2804:12:0404:12:20.5504:12:22.800:003.6
DNCJONSSON Hanna 2326W 13-1700:00:0202:50:2503:00:0104:12:2004:12:28.1504:12:30.200:003.6
DNCBROOKS Jeremy 1882M 40-4400:00:0202:46:2002:53:1604:12:2004:12:28.9004:12:31.750:003.6
DNCALIJA Floriana 2156W 35-3900:00:0101:44:4401:51:4304:12:4104:12:48.7504:12:50.150:003.6
DNCPARTNERS Arjan Hoekstra - Bi 2218M 45-4900:00:0002:36:5102:43:5904:12:4204:12:54.6004:12:54.600:003.6
DNCŠIŠKA Patrik 1211M 18-2400:00:0202:12:1002:21:0204:13:1304:13:22.7504:13:25.550:003.6
DNCTHOMAYER Jan 1199M 18-2400:00:0202:12:1102:21:0204:13:1304:13:22.8504:13:25.650:003.6
DNCGARBERG Aron 1825M 40-4400:00:0202:02:1802:08:0604:13:1804:13:26.3504:13:29.100:003.6
DNCVTYURINA Anastasia 1986W 18-2400:00:0101:39:1201:46:2104:14:0004:14:07.8504:14:09.750:003.5
DNCREPO Arto 1769M 35-3900:00:0302:05:3002:12:3604:14:3004:14:36.6504:14:39.800:003.5
DNCVERANNEMAN Pawel 1704M 35-3900:00:0202:20:5402:27:5404:14:3804:14:47.7504:14:49.950:003.5
DNCROSTOVTSEVA Anastasia 2177W 40-4400:00:0101:32:3601:39:1704:14:3404:14:51.0004:14:52.700:003.5
DNCSANDBERG Amanda 1982W 18-2400:00:0202:26:4902:34:0904:14:4504:14:54.2004:14:56.600:003.5
DNCPHILLIPS Alastair 1326M 25-2900:00:0202:43:4302:51:5904:15:1504:15:24.8504:15:27.400:003.5
DNCPÁDER Zsófia 2100W 30-3400:00:0101:55:4702:03:1404:15:3404:15:42.7504:15:44.300:003.5
DNCMEIER Rolf 1701M 35-3900:00:0301:45:0901:52:1404:15:3304:15:42.2004:15:45.200:003.5
DNCOSTERMEIER Gabriel 1264M 25-2900:00:0201:56:4302:04:5204:15:4304:15:50.2504:15:52.300:003.5
DNCGLETTE Susanne 2182W 40-4400:00:0102:36:4702:43:4904:15:5304:16:00.6004:16:02.350:003.5
DNCCRUZ Azahara Fernandez 2441W Journeyman00:00:0202:32:0902:45:4904:16:1304:16:21.9504:16:24.300:003.5
DNCWEMHÖNER Ida 2146W 35-3900:00:0102:02:0802:09:3304:16:4804:16:54.0004:16:55.300:003.5
DNCRODKINA Anna 2052W 25-2900:00:0202:59:4703:08:1004:16:5704:17:04.7504:17:06.850:003.5
DNCMELISSA Bearzatto 2023W 25-2900:00:0202:03:1002:10:2404:16:5504:17:04.7504:17:07.000:003.5
DNCFABIANI Marco 2312M 55+00:00:0002:50:4902:58:2504:17:0504:17:17.7504:17:18.500:003.5
DNCMATTSSON Christian 1486M 30-3400:00:0002:38:0002:44:1404:17:1604:17:24.3504:17:24.350:003.5
DNCRAMOS Paula Esteiro 2143W 35-3900:00:0101:29:5501:37:1504:17:1504:17:23.3004:17:24.700:003.5
DNCRENDELL Rebecca 1109W Elite00:00:0001:31:3001:38:3704:17:2004:17:28.1004:17:28.100:003.5
DNCBARALDI Davide 1603M 30-3400:00:0104:17:2404:17:31.1504:17:32.800:003.5
DNCWĘGLARZ Waldemar 1910M 40-4400:00:0202:03:5202:11:2404:17:2304:17:31.7504:17:33.900:003.5
DNCMIKEL Marek 1386M 25-2900:00:0102:35:4702:43:0804:17:4104:17:47.8004:17:49.600:003.5
DNCJÜRGENS Martina 2333W 45-4900:00:0202:32:5102:41:0304:17:5204:17:58.9504:18:01.100:003.5
DNCPEÑA Miguel 1306M 25-2900:00:0201:58:0202:04:0304:17:4604:18:04.7004:18:07.550:003.5
DNCNÄRVÄ Andreas 1901M 40-4400:00:0202:43:4002:50:3704:18:0804:18:14.3004:18:16.800:003.5
DNCWARDA Justyna 2045W 25-2900:00:0103:01:1103:10:3004:18:2804:18:35.5004:18:37.150:003.5
DNCSKAU Anders 1694M 35-3900:00:0202:28:4102:34:5304:18:5004:18:58.5504:19:01.300:003.5
DNCUTTENDORFER Andrea 2341W 50-5400:00:0302:35:0502:41:1704:19:0904:19:15.8004:19:19.000:003.5
DNCKĘPA Justyna 2162W 35-3900:00:0103:03:3203:11:1004:19:2504:19:33.8004:19:35.400:003.5
DNCTABARÉS Dani Pulga Rodríguez 1089M Elite00:00:0201:35:3704:19:3804:19:55.4004:19:57.500:003.5
DNCHEIß Roman 1709M 35-3900:00:0202:07:5602:15:0204:20:0104:20:09.1504:20:11.500:003.5
DNCORASIO Marta Relaño 2032W 25-2900:00:0002:35:2802:44:1604:20:0204:20:11.1004:20:12.000:003.5
DNCWAHLUND Jesper 1884M 40-4400:00:0001:55:3302:02:4504:20:1204:20:19.6004:20:20.550:003.5
DNCJENSEN Jakob Lund 1698M 35-3900:00:0302:37:2402:45:5004:20:2404:20:29.1004:20:32.900:003.5
DNCSTARZYK Sebastian 1724M 35-3900:00:0202:28:0202:34:5404:20:3404:20:41.5504:20:44.200:003.5
DNCGIATSINTOVA Irina 2159W 35-3900:00:0202:42:4102:53:2604:20:3804:20:53.0004:20:55.200:003.4
DNCSTØLEN Gunhild 2007W 18-2400:00:0102:40:3202:46:3804:21:0804:21:16.4004:21:17.950:003.4
DNCCHRISTOPHER Michel 1537M 30-3400:00:0002:14:4602:24:0504:20:5904:21:18.6504:21:18.650:003.4
DNCWELLS Robert 2247M 45-4900:00:0302:31:4402:41:5604:21:1104:21:21.1004:21:24.100:003.4
DNCGAROFALO Claudia 2018W 25-2900:00:0102:35:5402:46:2104:21:1904:21:26.0004:21:27.200:003.4
DNCSAND Andreas 1897M 40-4400:00:0302:49:1602:56:3904:21:1804:21:31.0504:21:34.500:003.4
DNCNOVÁ Petra 2006W 18-2400:00:0002:48:0802:55:4804:21:3304:21:45.2004:21:45.200:003.4
DNCKIRCHHÖFER Nils 1204M 18-2400:00:0101:20:5001:27:0604:22:1004:22:13.0504:22:15.000:003.4
DNCSJÖÅSEN Stefan 1718M 35-3900:00:0202:09:0502:15:3904:22:2204:22:27.4504:22:30.100:003.4
DNCLANTZ Anders 1874M 40-4400:00:0202:52:1602:59:4004:24:1904:24:31.6504:24:34.400:003.4
DNCPAPLICKA Katarzyna 2158W 35-3900:00:0102:17:5202:25:5104:24:3104:24:38.9504:24:40.050:003.4
DNCSCHIPPER Henk-Jan 1871M 40-4400:00:0102:03:5602:11:0304:24:53.8504:24:55.500:003.4
DNCBERGGREEN Søren 1862M 40-4400:00:0202:41:0902:48:1004:24:4804:24:57.8004:25:00.400:003.4
DNCDERRICK Robert 1712M 35-3900:00:0302:07:1302:15:2304:24:5404:25:04.7004:25:07.750:003.4
DNCPETTERSSON Uffe E 1956M 40-4400:00:0202:46:0702:53:3204:25:0704:25:14.3004:25:17.050:003.4
DNCOLDHAM Justin 2231M 45-4900:03:5902:31:4502:41:5804:21:1304:21:21.2504:25:21.000:003.4
DNCGÓMEZ-ESCALONILLA Elisa De La Cruz 1104W Elite00:00:0201:55:5502:07:2104:25:3904:25:58.1504:26:00.200:003.4
DNCSOCARRADES Bibiana 2078W 30-3400:00:0202:51:2103:01:5104:25:5204:25:59.6004:26:02.100:003.4
DNCVINCK Mark 1890M 40-4400:00:0202:11:5002:19:4404:26:0504:26:12.3004:26:14.650:003.4
DNCDAVIS Helen 2187W 40-4400:00:0202:42:0302:50:3804:26:0404:26:13.8504:26:16.400:003.4
DNCRIHA Zdenek 1538M 30-3400:00:0002:04:4102:11:2104:26:1304:26:20.7504:26:20.750:003.4
DNCGROOTERS Leo 1810M 40-4400:00:0202:37:2002:45:1804:26:1404:26:21.4504:26:24.100:003.4
DNCHORSTEN Jan Von 2286M 50-5400:00:0002:26:3502:35:5604:26:3804:26:48.3504:26:48.350:003.4
DNCALEXANDER Alexander 2244M 45-4900:00:0102:57:5903:05:1704:26:4504:26:52.0004:26:53.900:003.4
DNCNEAIL Stuart 1818M 40-4400:00:0102:15:2702:22:1604:27:0604:27:12.7504:27:14.700:003.4
DNCREMØ Hilde Therese 2083W 30-3400:00:0103:08:3103:16:3304:27:4404:27:50.0004:27:51.150:003.4
DNCGONZALEZ Eudelio Benitez 1708M 35-3900:00:0102:42:2602:48:2904:27:5104:28:00.4004:28:02.200:003.4
DNCGLACNER Jiří 1519M 30-3400:00:0002:23:4802:30:2904:28:0904:28:17.5504:28:17.550:003.4
DNCŠÁRKA Houšková 2028W 25-2900:00:0102:54:5203:01:2904:28:1504:28:22.7004:28:24.600:003.4
DNCRAVENZWAAIJ Jeroen Van 1529M 30-3400:00:0002:00:5302:07:2004:28:4904:28:55.6504:28:55.650:003.3
DNCUTTENDORFER Jürgen 2310M 55+00:00:0102:45:0502:51:1304:29:0904:29:15.5004:29:16.900:003.3
DNCPOLSTRA Berry 1606M 30-3400:00:0202:58:0703:06:0204:30:3704:30:43.5004:30:46.300:003.3
DNCESTIVAL Julien 1745M 35-3900:00:0302:16:2002:23:4804:30:4704:30:55.9504:30:59.100:003.3
DNCRANGNAU Olga 2037W 25-2900:00:0103:03:5703:12:3004:31:0104:31:06.7504:31:08.400:003.3
DNCGANOTAKIS Emmanouil 1250M 25-2900:00:0202:39:1702:45:0504:31:0804:31:15.2504:31:18.050:003.3
DNCFEIGH Maya 2091W 30-3400:00:0103:11:2603:20:4304:31:1504:31:20.1004:31:21.650:003.3
DNCRÓŻAŃSKI Rafał 1832M 40-4400:00:0201:58:1502:05:5904:31:2504:31:33.4504:31:35.950:003.3
DNCRAZINKINA Anastasiya 2075W 30-3400:00:0102:01:0002:08:2604:32:2004:32:28.9004:32:30.700:003.3
DNCLAGREZE Sven 1654M 35-3900:00:0102:48:5802:56:1604:32:5204:32:56.1004:32:57.850:003.3
DNCPULSA Artur 1752M 35-3900:00:0201:35:2001:42:1904:32:4904:33:07.9004:33:09.950:003.3
DNCZETTEL Roland 1076M Elite00:00:0202:57:5003:03:2304:33:0204:33:10.3004:33:12.300:003.3
DNCGEREIN Benjamin 1503M 30-3400:00:0002:53:1503:04:1604:33:4504:33:59.8004:33:59.800:003.3
DNCMCENHILL Aaron 1762M 35-3900:00:0202:38:0802:47:4104:33:4104:34:00.6004:34:03.150:003.3
DNCCRUZ Edu 1078M Elite00:00:0101:25:4401:31:5704:33:4604:34:08.8004:34:09.950:003.3
DNCTROUSIL Honza 1725M 35-3900:00:0302:49:0602:57:0904:34:1404:34:19.6504:34:22.950:003.3
DNCBARCIKOWSKI Lukasz 1703M 35-3900:00:0202:02:2102:10:4604:34:2504:34:32.8004:34:34.850:003.3
DNCWROBBEL Michael 2200M 45-4900:00:0203:05:5803:13:1604:34:4404:34:52.0504:34:54.200:003.3
DNCMAŁEK Hanna 2044W 25-2900:00:0103:14:5203:24:1204:34:5904:35:12.7504:35:14.250:003.3
DNCTARANTINOVA Olga 1099W Elite00:00:0202:14:0702:19:2804:35:2404:35:32.7004:35:34.750:003.3
DNCWONNEBERGER Lars 1696M 35-3900:00:0202:45:5902:53:1504:35:2304:35:34.9004:35:37.350:003.3
DNCLOUCA Sebastian 1800M 35-3900:00:0202:09:3002:16:4904:35:4804:35:55.0504:35:57.850:003.3
DNCULVEGREN Albina 2167W 40-4400:00:0102:49:4202:55:0504:35:5304:35:56.5004:35:58.000:003.3
DNCLEKISHVILI Sofiya 2076W 30-3400:00:0102:08:4902:16:2604:35:5104:35:57.8504:35:59.250:003.3
DNCFERRIS Miguel 1887M 40-4400:00:0102:01:1502:08:5604:36:1004:36:19.2004:36:20.450:003.3
DNCNICO Ducouroy 2256M 45-4900:00:0201:40:5201:47:1504:36:2304:36:33.4004:36:35.400:003.3
DNCMARTIN Luis 1079M Elite00:00:0101:33:0001:39:4404:36:5504:37:04.6004:37:06.200:003.2
DNCKOENIG Dimitri 1888M 40-4400:00:0304:37:0604:37:25.0504:37:28.200:003.2
DNCRENGREN Linn 2102W 30-3400:00:0202:42:3902:50:3704:37:3504:37:41.1004:37:44.050:003.2
DNCBLADIN Emelie 2105W 30-3400:00:0202:03:1802:11:1604:37:3504:37:41.8504:37:44.500:003.2
DNCTRÜMMEL Mario 1044M Elite00:00:0203:02:5103:07:2304:38:0304:38:09.3504:38:11.600:003.2
DNCGABELGAARD Tanja 1127W Elite00:00:0202:04:3202:13:1204:38:0104:38:09.5004:38:12.150:003.2
DNCGEORGIOU Vlantislav 1851M 40-4400:03:0203:05:5603:12:2304:35:0804:35:17.1504:38:19.650:003.3
DNCGUSTAVSSON Benny 1883M 40-4400:00:0303:12:3503:18:2304:38:2504:38:32.6004:38:35.900:003.2
DNCSPORTÍ Daniel 2261M 45-4900:00:0203:06:0703:13:5704:39:0004:39:19.6504:39:21.700:003.2
DNCMILLS Leroy 1682M 35-3900:00:0102:28:4102:39:0004:39:0104:39:20.5504:39:22.450:003.2
DNCMOBERG Linus 1441M 30-3400:00:0002:27:5102:34:3604:39:3304:39:39.8004:39:39.800:003.2
DNCLIGORIO Luigi 2293M 50-5400:00:0102:58:4303:06:1404:39:2504:39:41.6004:39:42.750:003.2
DNCROSA Domenico De 2225M 45-4900:00:0001:49:2801:58:1104:39:4104:39:50.0004:39:50.000:003.2
DNCWAKE Adam 1928M 40-4400:00:0202:52:1902:58:2804:39:4304:39:48.9004:39:51.800:003.2
DNCSELSTØ Tonje 2112W 30-3400:00:0202:10:3602:19:4404:40:0904:40:14.6504:40:17.150:003.2
DNCFRANCK Delomenie 2289M 50-5400:00:0102:25:5002:32:1604:40:0804:40:16.6004:40:18.400:003.2
DNCBÖKMAN Vanja 1978W 18-2400:00:0202:06:2902:14:2504:41:1304:41:22.0004:41:24.100:003.2
DNCBIEDERMANN Stefan 1618M 35-3900:00:0101:22:0901:28:5904:41:0704:41:26.0004:41:27.750:003.2
DNCGUSTAVSSON Jakob 1489M 30-3400:00:0003:18:1803:24:4304:41:3004:41:37.8504:41:37.850:003.2
DNCCANO Ignacio Palomo 1779M 35-3900:00:0102:34:0902:42:0604:41:3904:41:50.2504:41:51.950:003.2
DNCSUBBOTINAS Vitalijus 1648M 35-3900:00:0302:26:5802:32:4304:41:4904:42:08.6504:42:11.800:003.2
DNCLOVELOCK Christian 1853M 40-4400:00:0203:24:2203:32:2204:42:1304:42:21.1004:42:24.000:003.2
DNCMARTIN Flore 2071W 30-3400:00:0202:31:1102:39:0404:42:3304:42:40.7004:42:42.700:003.2
DNCMARTIN Lucie 2072W 30-3400:00:0201:59:5502:06:5604:42:3304:42:40.8504:42:43.000:003.2
DNCŻOŁNIEREK Wojciech 1291M 25-2900:00:0301:55:3302:03:1804:42:5404:43:00.1004:43:03.150:003.2
DNCDITTMANN Kerstin 2148W 35-3900:00:0103:21:1603:29:5504:43:2804:43:35.3504:43:36.900:003.2
DNCGODFREY Maggie 2344W 50-5400:00:0202:48:4803:00:2504:43:3204:43:40.5004:43:43.050:003.2
DNCHERNES Elisabeth 2027W 25-2900:00:0102:16:3102:25:3304:44:0404:44:10.6504:44:12.150:003.2
DNCKRASOŃ Jakub 1216M 18-2400:00:0202:35:5802:51:5704:44:5604:45:02.4504:45:04.600:003.2
DNCLAZZAROTTI Hugues 1932M 40-4400:00:0102:07:3302:14:4104:44:4404:45:04.3504:45:06.200:003.2
DNCSANNA Luca 1864M 40-4400:00:0103:15:3503:23:1604:45:1304:45:23.6504:45:25.100:003.2
DNCBERLIN Nanna 2017W 25-2900:00:0201:56:0502:03:3104:45:3104:45:41.1504:45:43.150:003.2
DNCCONVERS Jean-Luc 2317M 55+00:00:0003:02:0403:10:0404:45:4004:45:47.4504:45:48.100:003.1
DNCKIELY Richie 1860M 40-4400:06:0402:52:1702:58:4504:39:4104:39:47.3004:45:51.300:003.2
DNCRICHARDS David 1849M 40-4400:06:0302:52:1903:00:4004:39:4304:39:52.9504:45:56.400:003.2
DNCGRIMM Sophia 1976W 18-2400:00:0203:18:5703:27:3004:46:0104:46:06.5504:46:09.400:003.1
DNCNIELSEN Rene` 1894M 40-4400:00:0302:31:2502:40:5804:46:1904:46:27.8504:46:31.200:003.1
DNCRUFETE Maribel Cabanes 2145W 35-3900:00:0102:40:5102:47:0504:46:3304:46:43.0004:46:44.500:003.1
DNCMARINI Alessandro 2245M 45-4900:00:0303:05:4303:13:1204:46:3304:46:41.7004:46:44.750:003.1
DNCSPIJKER Dayen 2334W 45-4900:00:0202:39:1002:48:4604:46:4504:46:53.1504:46:55.200:003.1
DNCJUNIOR Radek Vostřel 1974M 13-1700:00:0103:15:3603:19:4204:46:4804:46:54.1504:46:55.900:003.1
DNCCHATFIELD Connor 1167M 18-2400:00:0201:33:2901:40:4804:48:2004:48:28.7504:48:31.050:003.1
DNCJACOBSEN Peter 1276M 25-2900:00:0201:55:2202:03:3604:48:3404:48:43.0504:48:45.950:003.1
DNCNELSON-DALEY Rianna 1112W Elite00:00:0002:04:3602:13:4304:49:1804:49:27.2504:49:27.250:003.1
DNCGUILLOUX Jean Philippe 1934M 40-4400:00:0202:57:5403:05:0204:49:0904:49:32.6004:49:34.750:003.1
DNCKRIUCHKOVA Irina 2024W 25-2900:00:0102:33:1702:41:5504:49:5504:50:04.3504:50:06.100:003.1
DNCDUHARTE Raul 1671M 35-3900:00:0203:14:4403:21:2704:50:1204:50:20.4504:50:22.950:003.1
DNCBIELEC Kinga 2141W 35-3900:00:0103:03:4403:11:0904:50:3404:50:43.0004:50:44.300:003.1
DNCBELLINI Giulio 1782M 35-3900:00:0202:08:5402:16:3604:50:3804:50:51.2504:50:54.200:003.1
DNCCAMPATELLI Roberto 2304M 50-5400:00:0003:09:5603:18:4104:50:4504:50:54.3504:50:54.600:003.1
DNCMUL Elisa 2327W 13-1700:00:0101:45:4201:53:3404:51:3804:51:43.9004:51:45.700:003.1
DNCKÖNIGOVÁ Lucie 2082W 30-3400:00:0201:53:4102:01:2404:52:1004:52:18.7504:52:20.950:003.1
DNCRECHENBACH Tim 1356M 25-2900:00:0202:22:0502:30:0604:52:2104:52:29.9504:52:32.800:003.1
DNCBURDZY Daniel 1200M 18-2400:00:0103:17:2703:25:0304:52:2004:52:31.1504:52:33.000:003.1
DNCCARSTAIRS John 2291M 50-5400:00:0002:53:4903:03:3904:52:2904:52:36.3504:52:36.350:003.1
DNCLONKOVÁ Magdalena 1991W 18-2400:00:0203:06:0003:15:2104:52:2604:52:37.1504:52:39.200:003.1
DNCKRAMER Elin 2049W 25-2900:00:0202:12:2102:20:5804:52:3504:52:41.3504:52:44.200:003.1
DNCLIND Ulrika 2066W 25-2900:00:0203:21:4203:29:1104:52:3504:52:41.3504:52:44.200:003.1
DNCJOHANSSON Caroline 2041W 25-2900:00:0302:12:1902:20:5604:52:3404:52:41.1504:52:44.400:003.1
DNCLINDBERG Kim 2257M 45-4900:00:0002:01:0002:09:3604:53:1304:53:30.3504:53:30.350:003.1
DNCVAKHRAMEEVA Valentina 2015W 25-2900:00:0102:22:3602:31:5604:53:2204:53:35.9004:53:37.500:003.1
DNCJANSEN Theo 1697M 35-3900:00:0202:05:1002:12:3304:53:3504:53:44.5004:53:46.600:003.1
DNCGASTEL Ruud Van 1700M 35-3900:00:0102:05:0802:12:3304:53:3704:53:46.1504:53:47.850:003.1
DNCSTRNAD Sebastian 1463M 30-3400:00:0003:05:0103:11:5904:53:3204:53:48.9504:53:48.950:003.1
DNCSOBRINO David Ruedas 1676M 35-3900:00:0202:37:1302:45:4804:53:4004:53:47.3504:53:49.600:003.1
DNCHOCHSTEIN Dirk 1858M 40-4400:00:0103:34:2103:42:3004:54:4804:54:54.3004:54:56.050:003.1
DNCGALLE Wouter 1903M 40-4400:00:0102:06:0102:11:5804:55:4004:55:47.3004:55:49.050:003
DNCENDEJANN Sina 2010W 18-2400:00:0203:08:5803:19:4104:56:0904:56:15.8004:56:18.650:003
DNCBROUWER Robert 2306M 50-5400:00:0001:52:1502:01:4104:56:52.5504:56:52.550:003
DNCFREDRIKSSON Elin 2090W 30-3400:00:0203:14:1403:21:4204:58:3604:58:43.6504:58:46.300:003
DNCCLARKE Keith 1906M 40-4400:00:0101:56:1502:03:3104:58:5604:59:12.9004:59:14.750:003
DNCPETTERA Stev 1953M 40-4400:00:0202:30:3502:38:5304:59:2904:59:40.9004:59:43.350:003
DNCKARLSSON Gunilla 2179W 40-4400:00:0203:06:2403:16:2904:59:4604:59:54.9504:59:57.100:003
DNCDENIS Timakov 1228M 25-2900:03:0201:47:1201:53:4204:57:0304:57:13.8505:00:16.200:003
DNCTAHIROVIC Adna 1981W 18-2400:00:0101:32:2501:39:1705:00:3805:00:47.8005:00:49.350:003
DNCKAUKOLA Henri 1232M 25-2900:03:0201:38:3501:45:1704:58:3004:58:39.3005:01:42.100:003
DNCCAMMAROTA Fabio 2234M 45-4900:00:0003:20:5503:29:3805:01:3905:01:45.5505:01:45.550:003
DNCAFANASJEV Gennadij 1783M 35-3900:00:0203:17:4203:26:2505:01:3405:01:43.8505:01:46.050:003
DNCWUNDERLICH Tobias 1361M 25-2900:00:0203:12:5903:20:0805:01:3005:01:47.1005:01:49.250:003
DNCRANNIKKO Emmy 2132W 35-3900:00:0102:38:3602:46:3305:02:0905:02:16.8005:02:18.700:003
DNCBEASTS Jakub Stec Best 1556M 30-3400:00:0001:46:5901:53:4205:02:0405:02:20.9005:02:20.900:003
DNCDRUIJFF Meike 2323W 13-1700:00:0202:06:3302:18:0205:02:3405:02:41.8505:02:43.850:003
DNCGRZEGORZYCA Damian 1865M 40-4400:00:0102:49:2602:56:3205:02:5005:02:59.4005:03:01.250:003
DNCMACIEJAK Anna 1126W Elite00:00:0203:10:0603:19:1705:03:0705:03:14.4005:03:16.900:003
DNCGONZALEZ Irene B. 1105W Elite00:00:0001:52:1302:01:0405:03:1105:03:31.4505:03:31.450:003
DNCIHECHERENOMA Uche 1496M 30-3400:00:0003:16:4903:24:4005:03:4105:03:49.8505:03:49.850:003
DNCSTENGER Morten 1358M 25-2900:00:0201:29:2701:36:3705:04:1205:04:21.8505:04:24.400:003
DNCBJERRE Secilie Vicktoria 2183W 40-4400:00:0101:38:1101:44:3605:04:3505:04:43.9505:04:45.650:003
DNCPEÑARANDA Ivan Cervera 1499M 30-3400:00:0002:09:4702:17:3905:04:3105:04:52.1005:04:52.100:003
DNCFERRARI Sabrina 2176W 40-4400:00:0102:26:5302:35:2405:04:5405:05:04.4005:05:05.600:003
DNCBRZEZIŃSKI Bartosz 1206M 18-2400:00:0103:39:3003:45:4105:05:3305:05:37.0005:05:38.700:002.9
DNCHEATH Daniel 1332M 25-2900:00:0102:02:3802:08:5105:06:0605:06:12.8005:06:14.500:002.9
DNCHEIJKENSKJÖLD Fenja 2117W 30-3400:00:0202:45:3202:52:4105:06:1505:06:20.3505:06:22.400:002.9
DNCANDERSSON Dan 2303M 50-5400:00:0003:07:5703:15:0805:06:1805:06:24.2005:06:25.050:002.9
DNCBLICK Tommy 2300M 50-5400:00:0003:07:5603:15:0905:06:1805:06:24.3005:06:25.150:002.9
DNCVIDAL Rubén Pérez 1939M 40-4400:00:0102:17:3602:24:3405:06:5605:07:03.4005:07:04.400:002.9
DNCWALWYN Anthony 2287M 50-5400:00:0103:16:1403:25:4505:07:1805:07:26.9005:07:28.650:002.9
DNCSCHIRMER Thorsten 2194M 45-4900:00:0202:17:2002:25:5105:07:36.0505:07:38.350:002.9
DNCGOFFIN Anneleen 2119W 30-3400:00:0202:33:5702:40:1705:07:5005:07:56.8505:07:59.100:002.9
DNCVYUGINA Ekaterina 2107W 30-3400:00:0203:25:3503:32:4205:08:07.0005:08:09.250:002.9
DNCDRÁBKOVÁ Veronika 1987W 18-2400:00:0103:17:4803:24:0305:08:17.7505:08:19.300:002.9
DNCKOBZOVÁ Kristýna 2005W 18-2400:00:0103:17:4803:24:0805:08:1005:08:17.8505:08:19.800:002.9
DNCGIRAUDO Federico 1917M 40-4400:00:0302:39:4102:48:1705:09:1705:09:24.3005:09:27.900:002.9
DNCJEZIORSKI Paweł 1191M 18-2400:00:0203:43:4403:50:2005:09:3205:09:35.9005:09:38.550:002.9
DNCPALERMO Mathias 1143M 18-2400:00:0202:13:3102:23:4005:09:2105:09:37.7005:09:40.400:002.9
DNCKURAŚ Beata 1122W Elite00:00:0203:44:4403:54:3605:09:5205:10:00.0505:10:02.150:002.9
DNCMATVIEVSKI Dmitry 1629M 35-3900:00:0301:54:4402:03:2705:10:3105:10:39.3505:10:42.600:002.9
DNCPRA Jacopo De 1669M 35-3900:03:0103:24:0803:33:2205:07:4705:08:01.1005:11:02.300:002.9
DNCMOTA Carlos 1760M 35-3900:00:0202:54:3803:02:1605:12:3205:12:41.3005:12:43.400:002.9
DNCCOLIZZI Renato 1530M 30-3400:00:0002:04:3302:12:0605:13:2405:13:33.3005:13:33.300:002.9
DNCEKLUND Malin 2008W 18-2400:00:0202:16:5802:24:2305:13:2805:13:37.0005:13:39.250:002.9
DNCSWACZYNSKI Krzysztof 1761M 35-3900:00:0102:20:2502:27:5905:13:3305:13:41.8005:13:43.250:002.9
DNCHERMANSEN Sacha 2131W 35-3900:00:0001:45:1701:52:5105:14:1705:14:20.9005:14:21.850:002.9
DNCCARACCIOLO Concettina 2118W 30-3400:00:0203:23:5103:32:2405:14:3405:14:45.6505:14:48.150:002.9
DNCPEIRO Javier Signes 2313M 55+00:00:0102:07:3702:16:4905:14:4205:14:59.5505:15:01.450:002.9
DNCSTEVENSON Alan 1646M 35-3900:00:0203:52:2104:00:2905:15:2405:15:32.2005:15:34.900:002.9
DNCNAZHA Ali 2263M 45-4900:00:0102:58:3303:06:0505:15:3305:15:45.9505:15:47.150:002.9
DNCMAND Christian 1735M 35-3900:00:0202:10:2102:18:1605:15:3805:15:48.3505:15:51.300:002.8
DNCSANTANA José Luis Caballero 1814M 40-4400:00:0203:08:5503:16:2905:16:1005:16:29.2505:16:31.700:002.8
DNCBERGSTRÖM Ewa 2180W 40-4400:00:0203:42:4603:52:3705:17:05.1005:17:07.100:002.8
DNCMATYASI Gábor 2278M 50-5400:00:0002:20:4202:27:3305:17:1205:17:18.5005:17:18.950:002.8
DNCGARDABOU Ibtisam 1985W 18-2400:00:0102:54:4703:04:3905:18:2005:18:24.9005:18:26.600:002.8
DNCOLEFELDT Teresa 2335W 45-4900:00:0203:02:2503:10:5505:18:2405:18:33.4005:18:36.100:002.8
DNCBOĆKO Krzysztof 1713M 35-3900:03:0202:52:5203:00:2305:15:4705:15:56.8005:18:59.250:002.8
DNCKIDSTON Douglas 1613M 30-3400:00:0303:36:0103:44:5205:19:1705:19:28.8005:19:32.450:002.8
DNCJASTRZĘBSKI Sławomir 1843M 40-4400:03:0103:49:0903:58:5005:17:2305:17:31.0505:20:32.850:002.8
DNCHANBURY Daniel 1506M 30-3400:00:0002:15:4302:23:0305:20:3005:20:36.4005:20:36.400:002.8
DNCSJÖGREN Niklas 1621M 35-3900:00:0101:49:0901:54:5805:21:0205:21:21.5505:21:23.250:002.8
DNCDAVIDSON Richard 1383M 25-2900:00:0203:22:5403:30:2405:21:2005:21:23.8005:21:26.750:002.8
DNCSTEFAN Van De Cloot 1954M 40-4400:00:0101:44:3801:51:2405:21:2005:21:40.2005:21:41.450:002.8
DNCNADIA Amri 2188W 40-4400:00:0003:08:3503:17:2505:22:3205:22:43.6005:22:44.450:002.8
DNCHNETILA Tomas 1960M 40-4400:00:0303:05:0703:12:4105:22:3805:22:46.2005:22:50.000:002.8
DNCMORAWSKI Grzegorz 1715M 35-3900:00:0102:21:1702:29:1705:23:1405:23:19.8005:23:21.600:002.8
DNCERIKKSON Stefan 2209M 45-4900:00:0301:59:1702:06:3805:24:13.9005:24:16.950:002.8
DNCLACALLE Juan Manuel González 1597M 30-3400:00:0303:22:4203:30:5305:24:5405:25:09.9005:25:13.000:002.8
DNCCARUSO Dario 1495M 30-3400:00:0003:08:2703:14:3705:25:3105:25:39.4505:25:39.450:002.8
DNCGROBELNA Aleksandra 2001W 18-2400:00:0101:37:1001:44:5105:25:3405:25:42.4505:25:44.000:002.8
DNCDOODY Kelvin 1485M 30-3400:00:0004:03:2204:11:3405:26:2005:26:34.7005:26:34.700:002.8
DNCOSTE Maarten 1353M 25-2900:00:0101:56:4902:03:4505:26:3105:26:49.0005:26:50.150:002.8
DNCLUCIANO Cecconi 2262M 45-4900:00:0103:04:3203:12:1905:27:1805:27:34.1005:27:35.800:002.7
DNCTARANTINO Selene 1990W 18-2400:00:0202:20:5602:29:5605:27:1705:27:37.5505:27:39.850:002.7
DNCSINNING Fabian 1407M 30-3400:00:0003:01:5803:09:2005:27:3705:28:00.0005:28:00.000:002.7
DNCVLASTIMIL Krejčí 1641M 35-3900:00:0303:54:5004:01:2805:28:1405:28:22.8005:28:25.900:002.7
DNCTAMBURLANI Filippo 1333M 25-2900:00:0101:30:5801:37:4505:28:2205:28:31.2505:28:33.100:002.7
DNCPEDERSEN Peder Ejsing 1359M 25-2900:00:0201:51:2801:57:2005:31:5405:32:00.4505:32:03.050:002.7
DNCVOS Michel De 2305M 50-5400:00:0002:03:2602:11:2205:32:3805:32:45.8505:32:46.000:002.7
DNCCOULY Christophe - Akira 1921M 40-4400:00:0201:59:2802:09:5305:33:3205:33:39.3005:33:41.950:002.7
DNCGINON Loïc 1270M 25-2900:00:0202:52:2202:59:4905:35:2105:35:27.3005:35:30.050:002.7
DNCWEJKNIS Krzysztof 1684M 35-3900:00:0102:37:2102:45:4005:35:5305:36:02.7005:36:04.300:002.7
DNCFAVINI Beatrice Fantoni 2147W 35-3900:00:0103:35:4703:42:1605:35:5705:36:08.8505:36:10.200:002.7
DNCKLIUCHENIA Vitali 1705M 35-3900:00:0203:26:3803:36:3205:36:0505:36:12.4505:36:14.700:002.7
DNCDĄBROWSKI Radek 1794M 35-3900:00:0001:35:4201:42:5305:36:4205:36:53.3005:36:53.300:002.7
DNCCRISCI Marco 1340M 25-2900:00:0203:53:1004:02:1105:37:1005:37:21.7005:37:23.850:002.7
DNCLOBODA Vadim 2279M 50-5400:00:0002:50:1702:58:1405:37:1505:37:24.7505:37:24.750:002.7
DNCKOLIC Monika 2153W 35-3900:00:0103:27:5003:36:5605:37:2805:37:35.9005:37:37.300:002.7
DNCKUTZ Vanessa 2040W 25-2900:00:0203:52:5003:59:5705:37:5205:37:58.6005:38:00.950:002.7
DNCMASSOUF Fred 2265M 45-4900:00:0102:58:2903:06:1205:37:5805:38:08.0005:38:09.400:002.7
DNCJUNIOR Radek Vostřel 1969M 13-1700:00:0002:00:4102:08:5905:38:1105:38:20.2005:38:20.200:002.7
DNCPÉTER Geszti 1590M 30-3400:00:0304:44:3904:51:3805:40:2405:40:33.2005:40:36.200:002.6
DNCЧИРКИН Алексей 1247M 25-2900:00:0202:38:5102:46:2905:41:5005:41:58.8005:42:01.050:002.6
DNCMAGOMEDOVA Leyla 2136W 35-3900:00:0103:34:0803:43:4605:42:0605:42:14.4505:42:15.550:002.6
DNCHANNABUSS Callum 1964M 13-1700:00:0103:29:2203:39:3905:42:0105:42:17.8505:42:19.500:002.6
DNCPALMA Pedro 1433M 30-3400:00:0001:55:4802:02:4105:42:4205:42:52.0505:42:52.050:002.6
DNCERIKSEN Kjetil 1645M 35-3900:00:0202:06:1502:12:5405:44:10.6005:44:13.100:002.6
DNCRITZLER Anna 2019W 25-2900:00:0103:57:5104:06:5205:44:3605:44:43.3005:44:44.800:002.6
DNCGUILLAUMIN Thomas 1497M 30-3400:00:0002:01:0402:08:4305:45:1105:45:28.4005:45:28.400:002.6
DNCKIRILL Belkin 1507M 30-3400:00:0004:07:3704:16:4905:45:2705:45:35.5505:45:35.550:002.6
DNCSTEPHANE Tchiknavorian 2224M 45-4900:00:0001:36:0201:42:0105:45:4905:45:58.9505:45:58.950:002.6
DNCDIFONSO Riccardo 1214M 18-2400:00:0203:39:3803:47:2605:45:5205:45:59.9005:46:02.150:002.6
DNCHAMANN Maren 2104W 30-3400:00:0104:21:0704:27:4805:47:3005:47:37.1505:47:38.700:002.6
DNCVERSEPUECH Adélie 2097W 30-3400:00:0203:33:3703:42:2405:47:3105:47:43.1505:47:45.900:002.6
DNCAUGUSTYNIAK Mariusz 1878M 40-4400:00:0003:11:5103:19:0505:47:2305:47:57.6005:47:57.600:002.6
DNCCRUICKSHANK Xander Dodd 1961M 13-1700:00:0104:00:1904:13:1305:50:2505:50:32.0505:50:34.000:002.6
DNCARROYO Ángel Rivas 1911M 40-4400:00:0102:02:5802:10:0305:51:2005:51:42.6005:51:43.950:002.6
DNCSØRENSEN Mette 1980W 18-2400:00:0202:54:1103:04:3705:51:5705:52:03.4505:52:06.300:002.6
DNCMÖTHRATH Dirk 1655M 35-3900:00:0104:42:2404:49:0905:52:5205:53:01.5005:53:02.800:002.5
DNCSŁONIEWSKI Rafał 1755M 35-3900:00:0303:12:0803:20:0705:54:1505:54:25.0505:54:28.100:002.5
DNCWENDT Nadine 2035W 25-2900:00:0203:57:4704:03:3805:54:4405:54:55.2005:54:57.300:002.5
DNCHEDENVALL Pierre 1699M 35-3900:00:0302:07:0102:14:4405:55:3205:55:37.5505:55:41.000:002.5
DNCOSSOLA Elisa 2053W 25-2900:00:0203:41:1303:51:2505:55:5305:56:03.2005:56:05.650:002.5
DNCLEN Vlad 1732M 35-3900:00:0204:30:2304:39:1805:57:4005:57:50.2005:57:52.850:002.5
DNCVERBESSEM Bart 1438M 30-3400:00:0003:52:4704:01:0406:00:3506:00:40.2506:00:40.250:002.5
DNCCREVEAU Anthony 1846M 40-4400:03:0202:00:3302:10:0605:58:1305:58:23.5506:01:26.500:002.5
DNCRAYNAUD Jimmy 1331M 25-2900:00:0101:39:0001:46:0206:01:1806:01:29.6006:01:30.950:002.5
DNCPOMBO Valentin Amigo 1414M 30-3400:00:0002:06:2502:17:0506:02:1706:02:25.7006:02:25.700:002.5
DNCMAYRHOFER Jana 2060W 25-2900:00:0203:52:4703:59:0006:02:36.4006:02:38.550:002.5
DNCJOBANPUTRA Mayoor 1309M 25-2900:00:0202:53:4203:00:0506:03:0406:03:09.9506:03:12.300:002.5
DNCAUBRIOT Pierre Charles 1571M 30-3400:00:0002:30:3102:40:5506:04:43.0006:04:43.000:002.5
DNCFRANCZYSZYN-PORTKA Magdalena 2149W 35-3900:00:0203:48:1403:56:0606:07:3106:07:40.6006:07:42.900:002.4
DNCJOFRE Eduardo 1750M 35-3900:00:0204:02:0304:07:1006:07:3306:07:45.1506:07:47.200:002.4
DNCTARYBA Maryna 2079W 30-3400:00:0203:38:2103:48:2406:10:2106:10:27.4006:10:29.400:002.4
DNCVERDIESEN Marloes 1999W 18-2400:00:0202:26:4902:35:1206:11:0706:11:11.4506:11:13.500:002.4
DNCMUSIL Marek 1898M 40-4400:00:0105:00:5805:07:5906:11:2506:11:33.3006:11:34.700:002.4
DNCBARRE Aline 1994W 18-2400:00:0204:37:0004:44:1106:14:4106:14:46.9506:14:49.900:002.4
DNCSANZ Jose Royo 1839M 40-4400:00:0204:06:5304:19:1106:15:1606:15:23.2006:15:25.650:002.4
DNCJAGER Robin De 1297M 25-2900:00:0102:29:2602:37:1606:16:1906:16:25.9006:16:27.850:002.4
DNCCARAFFINI Atos 1949M 40-4400:00:0201:55:1802:02:0706:19:1806:19:25.3006:19:27.600:002.4
DNCTYKAL Petr 1175M 18-2400:00:0103:00:0003:08:3806:20:3606:20:50.3506:20:51.900:002.4
DNCMARTOS Eduardo 1346M 25-2900:00:0103:56:2504:04:2406:21:0706:21:15.0006:21:16.750:002.4
DNCCAGLIOTI Vincenzo 1875M 40-4400:00:0102:39:1402:45:3806:24:5706:25:09.3006:25:11.150:002.3
DNCRIPOLLÉS Lluna Sanz 1110W Elite00:00:0004:32:4504:39:1906:26:2006:26:26.7506:26:26.750:002.3
DNCSCHUTTRUPS Margreet 2099W 30-3400:00:0101:55:4602:04:0206:27:3906:27:46.7506:27:48.150:002.3
DNCGEYBELS Stef 1174M 18-2400:00:0103:12:2103:19:0706:28:3406:28:38.6006:28:40.400:002.3
DNCNEUHAUS Pascal 1859M 40-4400:00:0102:28:5602:36:1906:29:0806:29:24.8506:29:26.450:002.3
DNCMICHAŁOWSKI Jacek 1868M 40-4400:00:0202:38:4602:46:1206:29:3406:29:54.1506:29:56.350:002.3
DNCKAMMINGA Ruben 1957M 40-4400:00:0203:34:5603:40:4306:35:3906:35:46.4006:35:48.850:002.3
DNCMÜLLERS Kai 1923M 40-4400:00:0103:53:0504:01:4206:43:2806:43:35.5006:43:37.250:002.2
DNCBELLOMI Laura 2140W 35-3900:00:0106:43:2906:43:36.2006:43:37.550:002.2
DNCACQUADRO Elena 2139W 35-3900:00:0102:38:2302:46:5406:43:3006:43:36.3506:43:37.550:002.2
DNCBARTOLI Sara 2029W 25-2900:00:0102:29:0902:38:1306:44:5606:45:01.8506:45:03.450:002.2
DNCTIMSIT Romain 1300M 25-2900:00:0102:12:5302:20:5006:46:1406:46:24.4506:46:26.300:002.2
DNCBRACCAIOLI Lorenzo 1374M 25-2900:00:0101:38:3801:45:3206:47:1806:47:37.4506:47:38.600:002.2
DNCHÄUSLER Markus 1856M 40-4400:00:0204:25:0304:32:1706:49:2906:49:36.8006:49:38.850:002.2
DNCYUCEL Jeffrey 1209M Journeyman03:12:0302:24:4102:32:4903:39:2003:39:27.6006:51:30.700:004.1
DNCBELLIDO David Fernández 1336M 25-2900:00:0203:56:2404:04:2506:53:1506:53:23.6506:53:26.500:002.2
DNCBARDELLINI Paola 2121W 30-3400:00:0202:40:1402:48:0206:53:3006:53:33.8506:53:36.000:002.2
DNCDESOUTER Maud 2003W 18-2400:00:0201:26:3201:33:2406:53:3106:53:40.5006:53:42.500:002.2
DNCMAURIZIO Laudenzi 1872M 40-4400:00:0105:05:2005:11:2106:55:4406:55:54.0506:55:55.600:002.2
DNCKOVÁČIK Branislav 1504M 30-3400:00:0004:36:2704:43:3406:56:2006:56:29.8006:56:29.800:002.2
DNCLOVATO Daniela 2092W 30-3400:00:0202:26:2502:37:0106:58:2906:58:36.5006:58:38.800:002.2
DNCGODANI Francesca 2000W 18-2400:00:0203:26:5503:35:2506:59:5607:00:02.1007:00:04.750:002.1
DNCCASTELEIJN Selma 1998W 18-2400:00:0102:26:4902:35:1407:03:0307:03:12.2507:03:14.100:002.1
DNCHAHN Henrik 1585M 30-3400:00:0204:06:4504:15:3507:04:0907:04:17.4007:04:19.900:002.1
DNCDĄBROWSKI Radek 1221M 18-2400:00:0202:03:1202:11:0407:08:1807:08:35.2507:08:37.750:002.1
DNCOROLOGIO Noemi 2056W 25-2900:00:0202:26:4902:35:3707:08:2907:08:37.0007:08:39.000:002.1
DNCKUBIESA Jakub 1796M 35-3900:00:0103:06:5003:14:1407:17:4607:17:53.9507:17:55.650:002.1
DNCPOZO Juan Carlos Contador 1492M 30-3400:00:0003:58:1004:05:4607:19:1507:19:29.5007:19:29.500:002
DNCDIEGO Raul De 1524M 30-3400:00:0005:18:0305:29:1207:21:1207:21:22.7007:21:22.700:002
DNCRUKATUKL Alexander 1342M 25-2900:00:0204:46:0304:51:5407:25:0107:25:28.1007:25:30.350:002
DNCKOZIOŁ Kamil 1330M 25-2900:00:0103:40:5003:46:4207:25:3607:25:53.0007:25:54.500:002
DNCPABLO 1498M 30-3400:00:0001:59:2602:07:4607:25:5107:26:07.5007:26:07.500:002
DNCBONFANTI Andrea 177401:57:0201:50:0401:56:5305:33:1605:33:25.5007:30:28.200:002.7
DNCBAUMANN Sebastian 1780M 35-3900:00:0302:32:5702:38:0407:34:1407:34:37.0007:34:40.150:002
DNCSZEPANSKI Michael 1178M 18-2400:00:0202:48:4802:55:5107:48:35.4007:48:38.300:001.9
DNCNIELSEN Niklas 1517M 30-3400:00:0002:32:4802:41:0507:52:2507:52:35.9507:52:35.950:001.9
DNCNAVARRO Cristian Manuel Madrid 1337M 25-2900:00:0203:56:2404:04:2108:15:2808:15:46.3508:15:49.000:001.8
DNCRESTUCCIA Nicolo 1586M 30-3400:00:0204:24:5304:33:3708:17:2108:17:39.3008:17:41.500:001.8
DNCUMLAUFT Tim 1141M 18-2400:00:0201:46:5801:53:5508:31:3608:31:46.7008:31:49.450:001.8
DNCVAZQUEZ Jesus Montoto 1612M 30-3400:00:0101:19:3401:26:08--
SILIN Sergey 1015M EliteDNF00:54:41 DNF00:59:34 DNF DNF DNF DNF--
PUPKOWSKI Kamil 1625M 35-39DNF01:16:49 DNF01:22:44 DNF DNF DNF DNF--
BURGESS Jason 1896M 40-44DNF01:18:27 DNF01:23:56 DNF DNF DNF DNF--
MONZON Imre 1065M EliteDNF01:19:53 DNF01:27:25 DNF DNF DNF DNF--
KAZUŁA Jakub 1176M 18-24DNF01:27:33 DNF01:35:37 DNF DNF DNF DNF--
GROENEVELD Remco 1749M 35-39DNF01:31:36 DNF01:38:42 DNF DNF DNF DNF--
BUNGARD Carina 1102W EliteDNF01:35:38 DNF01:42:13 DNF DNF DNF DNF--
CAROL Zenga 2012W 18-24DNF01:36:26 DNF01:43:26 DNF DNF DNF DNF--
TORRES Oscar Barranquero 1824M 40-44DNF02:04:21 DNF02:11:40 DNF DNF DNF DNF--
REDZIK Mateusz 1188M 18-24DNF DNF03:05:46 DNF DNF DNF DNF--
HAGLUND Cecilia 2088W 30-34DNF DNF DNF DNF DNF DNF--
BENTLEY Andy 1893M 40-44DNF DNF DNF DNF DNF DNF--
WHETTON Eddie 1722M 35-39DNF DNF DNF DNF DNF DNF--
JOHANSSON Ellen 2103W 30-34DNF DNF DNF DNF DNF DNF--
JENSEN Michael Degn 1711M 35-39DNF DNF DNF DNF DNF DNF--
WEETS Marc 2311M 55+DNF DNF DNF DNF DNF DNF--
KANSTRUP Nicolai 1226M 25-29DNF DNF DNF DNF DNF DNF--
SUESSENBACH Steffen 1730M 35-39DNF DNF DNF DNF DNF DNF--
Znaleziono 1274 wynik(ów)